<?xml version="1.0" encoding="UTF-8" standalone="no" ?>
<gpx xmlns="http://www.topografix.com/GPX/1/1" xmlns:xsi="http://www.w3.org/2001/XMLSchema-instance" xsi:schemaLocation="http://www.topografix.com/GPX/1/1 http://www.topografix.com/GPX/1/1/gpx.xsd" version="1.1" creator="VisuGPX - https://www.visugpx.com">
  <metadata>
    <name>GR34 : du pont Rolland à la pointe du Grouin</name>
    <desc><![CDATA[sur le GR34 e 28/09/2013]]></desc>
  </metadata>
  <trk>
    <name><![CDATA[GR34 : du pont Rolland à la pointe du Grouin_1]]></name>
    <trkseg>
      <trkpt lat="48.51893" lon="-2.62142">
        <ele>32.826271</ele>
        <time>2013-09-28T12:32:38Z</time>
      </trkpt>
      <trkpt lat="48.51893" lon="-2.62142">
        <ele>32.544704</ele>
        <time>2013-09-28T12:32:39Z</time>
      </trkpt>
      <trkpt lat="48.51898" lon="-2.62166">
        <ele>32.7</ele>
        <time>2013-09-28T12:33:09Z</time>
      </trkpt>
      <trkpt lat="48.51903" lon="-2.62176">
        <ele>31.9</ele>
        <time>2013-09-28T12:33:19Z</time>
      </trkpt>
      <trkpt lat="48.51909" lon="-2.62187">
        <ele>30.9</ele>
        <time>2013-09-28T12:33:28Z</time>
      </trkpt>
      <trkpt lat="48.51912" lon="-2.62198">
        <ele>30.4</ele>
        <time>2013-09-28T12:33:35Z</time>
      </trkpt>
      <trkpt lat="48.51915" lon="-2.62209">
        <ele>29.8</ele>
        <time>2013-09-28T12:33:41Z</time>
      </trkpt>
      <trkpt lat="48.51915" lon="-2.62211">
        <ele>29.6</ele>
        <time>2013-09-28T12:33:42Z</time>
      </trkpt>
      <trkpt lat="48.51919" lon="-2.62234">
        <ele>27.5</ele>
        <time>2013-09-28T12:33:58Z</time>
      </trkpt>
      <trkpt lat="48.51921" lon="-2.62247">
        <ele>26.3</ele>
        <time>2013-09-28T12:34:07Z</time>
      </trkpt>
      <trkpt lat="48.51923" lon="-2.62259">
        <ele>25.1</ele>
        <time>2013-09-28T12:34:15Z</time>
      </trkpt>
      <trkpt lat="48.51928" lon="-2.62271">
        <ele>23.9</ele>
        <time>2013-09-28T12:34:24Z</time>
      </trkpt>
      <trkpt lat="48.51932" lon="-2.62282">
        <ele>23.2</ele>
        <time>2013-09-28T12:34:33Z</time>
      </trkpt>
      <trkpt lat="48.51939" lon="-2.62291">
        <ele>22.9</ele>
        <time>2013-09-28T12:34:41Z</time>
      </trkpt>
      <trkpt lat="48.51945" lon="-2.62299">
        <ele>22.5</ele>
        <time>2013-09-28T12:34:49Z</time>
      </trkpt>
      <trkpt lat="48.51945" lon="-2.623">
        <ele>22.5</ele>
        <time>2013-09-28T12:34:50Z</time>
      </trkpt>
      <trkpt lat="48.51958" lon="-2.62317">
        <ele>21.1</ele>
        <time>2013-09-28T12:35:09Z</time>
      </trkpt>
      <trkpt lat="48.51962" lon="-2.62327">
        <ele>21.2</ele>
        <time>2013-09-28T12:35:15Z</time>
      </trkpt>
      <trkpt lat="48.51969" lon="-2.62336">
        <ele>21.5</ele>
        <time>2013-09-28T12:35:23Z</time>
      </trkpt>
      <trkpt lat="48.51975" lon="-2.62344">
        <ele>21.8</ele>
        <time>2013-09-28T12:35:31Z</time>
      </trkpt>
      <trkpt lat="48.51981" lon="-2.62353">
        <ele>22.1</ele>
        <time>2013-09-28T12:35:39Z</time>
      </trkpt>
      <trkpt lat="48.51989" lon="-2.62354">
        <ele>22.1</ele>
        <time>2013-09-28T12:35:50Z</time>
      </trkpt>
      <trkpt lat="48.5199" lon="-2.62354">
        <ele>22.1</ele>
        <time>2013-09-28T12:35:51Z</time>
      </trkpt>
      <trkpt lat="48.52006" lon="-2.62347">
        <ele>22.3</ele>
        <time>2013-09-28T12:36:14Z</time>
      </trkpt>
      <trkpt lat="48.52014" lon="-2.6235">
        <ele>22.9</ele>
        <time>2013-09-28T12:36:34Z</time>
      </trkpt>
      <trkpt lat="48.52022" lon="-2.62355">
        <ele>24</ele>
        <time>2013-09-28T12:36:51Z</time>
      </trkpt>
      <trkpt lat="48.52023" lon="-2.62355">
        <ele>24.2</ele>
        <time>2013-09-28T12:36:52Z</time>
      </trkpt>
      <trkpt lat="48.52038" lon="-2.6235">
        <ele>26.7</ele>
        <time>2013-09-28T12:37:10Z</time>
      </trkpt>
      <trkpt lat="48.52047" lon="-2.62353">
        <ele>27.9</ele>
        <time>2013-09-28T12:37:19Z</time>
      </trkpt>
      <trkpt lat="48.52055" lon="-2.62353">
        <ele>29.1</ele>
        <time>2013-09-28T12:37:29Z</time>
      </trkpt>
      <trkpt lat="48.52064" lon="-2.62352">
        <ele>30.9</ele>
        <time>2013-09-28T12:37:43Z</time>
      </trkpt>
      <trkpt lat="48.52072" lon="-2.62355">
        <ele>32.3</ele>
        <time>2013-09-28T12:37:57Z</time>
      </trkpt>
      <trkpt lat="48.52073" lon="-2.62355">
        <ele>32.4</ele>
        <time>2013-09-28T12:37:58Z</time>
      </trkpt>
      <trkpt lat="48.52086" lon="-2.6237">
        <ele>33.5</ele>
        <time>2013-09-28T12:38:34Z</time>
      </trkpt>
      <trkpt lat="48.52091" lon="-2.62381">
        <ele>33.7</ele>
        <time>2013-09-28T12:38:44Z</time>
      </trkpt>
      <trkpt lat="48.52098" lon="-2.6239">
        <ele>33.9</ele>
        <time>2013-09-28T12:39:00Z</time>
      </trkpt>
      <trkpt lat="48.52098" lon="-2.6239">
        <ele>33.9</ele>
        <time>2013-09-28T12:39:01Z</time>
      </trkpt>
      <trkpt lat="48.52113" lon="-2.62399">
        <ele>33.9</ele>
        <time>2013-09-28T12:39:23Z</time>
      </trkpt>
      <trkpt lat="48.52121" lon="-2.62405">
        <ele>34</ele>
        <time>2013-09-28T12:39:36Z</time>
      </trkpt>
      <trkpt lat="48.52127" lon="-2.62415">
        <ele>34.4</ele>
        <time>2013-09-28T12:39:51Z</time>
      </trkpt>
      <trkpt lat="48.52133" lon="-2.62425">
        <ele>33.6</ele>
        <time>2013-09-28T12:39:58Z</time>
      </trkpt>
      <trkpt lat="48.52139" lon="-2.62434">
        <ele>32.4</ele>
        <time>2013-09-28T12:40:07Z</time>
      </trkpt>
      <trkpt lat="48.5214" lon="-2.62434">
        <ele>32.3</ele>
        <time>2013-09-28T12:40:08Z</time>
      </trkpt>
      <trkpt lat="48.52143" lon="-2.62457">
        <ele>31</ele>
        <time>2013-09-28T12:40:24Z</time>
      </trkpt>
      <trkpt lat="48.52142" lon="-2.6247">
        <ele>30.5</ele>
        <time>2013-09-28T12:40:35Z</time>
      </trkpt>
      <trkpt lat="48.52142" lon="-2.62483">
        <ele>29.4</ele>
        <time>2013-09-28T12:40:47Z</time>
      </trkpt>
      <trkpt lat="48.52144" lon="-2.62496">
        <ele>26.9</ele>
        <time>2013-09-28T12:40:59Z</time>
      </trkpt>
      <trkpt lat="48.52145" lon="-2.62508">
        <ele>26.4</ele>
        <time>2013-09-28T12:41:06Z</time>
      </trkpt>
      <trkpt lat="48.52145" lon="-2.62521">
        <ele>24.3</ele>
        <time>2013-09-28T12:41:15Z</time>
      </trkpt>
      <trkpt lat="48.52145" lon="-2.62522">
        <ele>24.3</ele>
        <time>2013-09-28T12:41:16Z</time>
      </trkpt>
      <trkpt lat="48.52142" lon="-2.62546">
        <ele>22.1</ele>
        <time>2013-09-28T12:41:52Z</time>
      </trkpt>
      <trkpt lat="48.52141" lon="-2.62559">
        <ele>20.8</ele>
        <time>2013-09-28T12:42:05Z</time>
      </trkpt>
      <trkpt lat="48.52141" lon="-2.62572">
        <ele>19</ele>
        <time>2013-09-28T12:42:14Z</time>
      </trkpt>
      <trkpt lat="48.52138" lon="-2.62584">
        <ele>17.7</ele>
        <time>2013-09-28T12:42:22Z</time>
      </trkpt>
      <trkpt lat="48.52138" lon="-2.62585">
        <ele>17.4</ele>
        <time>2013-09-28T12:42:23Z</time>
      </trkpt>
      <trkpt lat="48.52135" lon="-2.62609">
        <ele>16.5</ele>
        <time>2013-09-28T12:42:42Z</time>
      </trkpt>
      <trkpt lat="48.52138" lon="-2.6262">
        <ele>14.6</ele>
        <time>2013-09-28T12:42:51Z</time>
      </trkpt>
      <trkpt lat="48.52137" lon="-2.62633">
        <ele>13.1</ele>
        <time>2013-09-28T12:43:05Z</time>
      </trkpt>
      <trkpt lat="48.52133" lon="-2.62645">
        <ele>13.1</ele>
        <time>2013-09-28T12:43:15Z</time>
      </trkpt>
      <trkpt lat="48.52131" lon="-2.62657">
        <ele>13.9</ele>
        <time>2013-09-28T12:43:25Z</time>
      </trkpt>
      <trkpt lat="48.5213" lon="-2.62658">
        <ele>13.5</ele>
        <time>2013-09-28T12:43:26Z</time>
      </trkpt>
      <trkpt lat="48.52126" lon="-2.6268">
        <ele>16.6</ele>
        <time>2013-09-28T12:43:51Z</time>
      </trkpt>
      <trkpt lat="48.52125" lon="-2.62693">
        <ele>16.4</ele>
        <time>2013-09-28T12:43:58Z</time>
      </trkpt>
      <trkpt lat="48.52123" lon="-2.62705">
        <ele>15.1</ele>
        <time>2013-09-28T12:44:05Z</time>
      </trkpt>
      <trkpt lat="48.52126" lon="-2.62717">
        <ele>14.9</ele>
        <time>2013-09-28T12:44:13Z</time>
      </trkpt>
      <trkpt lat="48.52128" lon="-2.6273">
        <ele>14.6</ele>
        <time>2013-09-28T12:44:22Z</time>
      </trkpt>
      <trkpt lat="48.52125" lon="-2.62743">
        <ele>18.1</ele>
        <time>2013-09-28T12:44:42Z</time>
      </trkpt>
      <trkpt lat="48.52125" lon="-2.62743">
        <ele>18.3</ele>
        <time>2013-09-28T12:44:43Z</time>
      </trkpt>
      <trkpt lat="48.52125" lon="-2.62765">
        <ele>21</ele>
        <time>2013-09-28T12:45:18Z</time>
      </trkpt>
      <trkpt lat="48.52128" lon="-2.62778">
        <ele>18.9</ele>
        <time>2013-09-28T12:45:28Z</time>
      </trkpt>
      <trkpt lat="48.52132" lon="-2.62789">
        <ele>19.6</ele>
        <time>2013-09-28T12:45:37Z</time>
      </trkpt>
      <trkpt lat="48.52134" lon="-2.62803">
        <ele>20.8</ele>
        <time>2013-09-28T12:45:48Z</time>
      </trkpt>
      <trkpt lat="48.52134" lon="-2.62804">
        <ele>20.8</ele>
        <time>2013-09-28T12:45:49Z</time>
      </trkpt>
      <trkpt lat="48.52141" lon="-2.62827">
        <ele>22.7</ele>
        <time>2013-09-28T12:46:09Z</time>
      </trkpt>
      <trkpt lat="48.52137" lon="-2.62839">
        <ele>21.4</ele>
        <time>2013-09-28T12:46:21Z</time>
      </trkpt>
      <trkpt lat="48.52132" lon="-2.62849">
        <ele>21.4</ele>
        <time>2013-09-28T12:46:30Z</time>
      </trkpt>
      <trkpt lat="48.52129" lon="-2.62862">
        <ele>20.4</ele>
        <time>2013-09-28T12:46:49Z</time>
      </trkpt>
      <trkpt lat="48.52128" lon="-2.62863">
        <ele>19.9</ele>
        <time>2013-09-28T12:46:50Z</time>
      </trkpt>
      <trkpt lat="48.52121" lon="-2.62885">
        <ele>14.6</ele>
        <time>2013-09-28T12:47:13Z</time>
      </trkpt>
      <trkpt lat="48.52116" lon="-2.62896">
        <ele>13.4</ele>
        <time>2013-09-28T12:47:26Z</time>
      </trkpt>
      <trkpt lat="48.5211" lon="-2.62905">
        <ele>13.5</ele>
        <time>2013-09-28T12:47:36Z</time>
      </trkpt>
      <trkpt lat="48.52102" lon="-2.62912">
        <ele>11.9</ele>
        <time>2013-09-28T12:47:45Z</time>
      </trkpt>
      <trkpt lat="48.52104" lon="-2.62925">
        <ele>10</ele>
        <time>2013-09-28T12:48:02Z</time>
      </trkpt>
      <trkpt lat="48.52104" lon="-2.62925">
        <ele>10.2</ele>
        <time>2013-09-28T12:48:03Z</time>
      </trkpt>
      <trkpt lat="48.5212" lon="-2.62929">
        <ele>10.8</ele>
        <time>2013-09-28T12:48:46Z</time>
      </trkpt>
      <trkpt lat="48.52128" lon="-2.62926">
        <ele>11.8</ele>
        <time>2013-09-28T12:48:57Z</time>
      </trkpt>
      <trkpt lat="48.52137" lon="-2.62924">
        <ele>12.7</ele>
        <time>2013-09-28T12:49:09Z</time>
      </trkpt>
      <trkpt lat="48.52138" lon="-2.62923">
        <ele>12.9</ele>
        <time>2013-09-28T12:49:10Z</time>
      </trkpt>
      <trkpt lat="48.52153" lon="-2.62916">
        <ele>13.4</ele>
        <time>2013-09-28T12:49:29Z</time>
      </trkpt>
      <trkpt lat="48.52161" lon="-2.62916">
        <ele>14.4</ele>
        <time>2013-09-28T12:49:40Z</time>
      </trkpt>
      <trkpt lat="48.52169" lon="-2.62916">
        <ele>14.2</ele>
        <time>2013-09-28T12:49:45Z</time>
      </trkpt>
      <trkpt lat="48.52178" lon="-2.62917">
        <ele>14.6</ele>
        <time>2013-09-28T12:49:52Z</time>
      </trkpt>
      <trkpt lat="48.52186" lon="-2.62918">
        <ele>16.5</ele>
        <time>2013-09-28T12:50:02Z</time>
      </trkpt>
      <trkpt lat="48.52195" lon="-2.62918">
        <ele>17.6</ele>
        <time>2013-09-28T12:50:13Z</time>
      </trkpt>
      <trkpt lat="48.52196" lon="-2.62918">
        <ele>18</ele>
        <time>2013-09-28T12:50:14Z</time>
      </trkpt>
      <trkpt lat="48.52212" lon="-2.62916">
        <ele>22</ele>
        <time>2013-09-28T12:50:37Z</time>
      </trkpt>
      <trkpt lat="48.5222" lon="-2.62916">
        <ele>22.5</ele>
        <time>2013-09-28T12:50:47Z</time>
      </trkpt>
      <trkpt lat="48.52229" lon="-2.62918">
        <ele>24.7</ele>
        <time>2013-09-28T12:50:59Z</time>
      </trkpt>
      <trkpt lat="48.52238" lon="-2.62922">
        <ele>25</ele>
        <time>2013-09-28T12:51:08Z</time>
      </trkpt>
      <trkpt lat="48.52246" lon="-2.6292">
        <ele>24.5</ele>
        <time>2013-09-28T12:51:16Z</time>
      </trkpt>
      <trkpt lat="48.52247" lon="-2.62919">
        <ele>24.7</ele>
        <time>2013-09-28T12:51:17Z</time>
      </trkpt>
      <trkpt lat="48.52262" lon="-2.62913">
        <ele>29.3</ele>
        <time>2013-09-28T12:51:51Z</time>
      </trkpt>
      <trkpt lat="48.52271" lon="-2.62909">
        <ele>31.2</ele>
        <time>2013-09-28T12:52:02Z</time>
      </trkpt>
      <trkpt lat="48.52279" lon="-2.62905">
        <ele>34</ele>
        <time>2013-09-28T12:52:15Z</time>
      </trkpt>
      <trkpt lat="48.52288" lon="-2.62903">
        <ele>38.3</ele>
        <time>2013-09-28T12:52:34Z</time>
      </trkpt>
      <trkpt lat="48.52288" lon="-2.62903">
        <ele>38.8</ele>
        <time>2013-09-28T12:52:35Z</time>
      </trkpt>
      <trkpt lat="48.52302" lon="-2.6289">
        <ele>39.5</ele>
        <time>2013-09-28T12:53:17Z</time>
      </trkpt>
      <trkpt lat="48.5231" lon="-2.62884">
        <ele>40</ele>
        <time>2013-09-28T12:53:26Z</time>
      </trkpt>
      <trkpt lat="48.52316" lon="-2.62876">
        <ele>38.4</ele>
        <time>2013-09-28T12:53:34Z</time>
      </trkpt>
      <trkpt lat="48.52322" lon="-2.62866">
        <ele>40</ele>
        <time>2013-09-28T12:53:41Z</time>
      </trkpt>
      <trkpt lat="48.52323" lon="-2.62865">
        <ele>40.1</ele>
        <time>2013-09-28T12:53:42Z</time>
      </trkpt>
      <trkpt lat="48.52336" lon="-2.62852">
        <ele>39</ele>
        <time>2013-09-28T12:53:54Z</time>
      </trkpt>
      <trkpt lat="48.52343" lon="-2.62844">
        <ele>39.4</ele>
        <time>2013-09-28T12:54:01Z</time>
      </trkpt>
      <trkpt lat="48.52351" lon="-2.62838">
        <ele>38.8</ele>
        <time>2013-09-28T12:54:14Z</time>
      </trkpt>
      <trkpt lat="48.52358" lon="-2.6283">
        <ele>35</ele>
        <time>2013-09-28T12:54:31Z</time>
      </trkpt>
      <trkpt lat="48.52363" lon="-2.6282">
        <ele>33.5</ele>
        <time>2013-09-28T12:54:45Z</time>
      </trkpt>
      <trkpt lat="48.52364" lon="-2.62819">
        <ele>33.5</ele>
        <time>2013-09-28T12:54:46Z</time>
      </trkpt>
      <trkpt lat="48.52376" lon="-2.62802">
        <ele>29.4</ele>
        <time>2013-09-28T12:55:09Z</time>
      </trkpt>
      <trkpt lat="48.52383" lon="-2.62793">
        <ele>26.9</ele>
        <time>2013-09-28T12:55:24Z</time>
      </trkpt>
      <trkpt lat="48.5239" lon="-2.62786">
        <ele>22.8</ele>
        <time>2013-09-28T12:55:42Z</time>
      </trkpt>
      <trkpt lat="48.52397" lon="-2.62792">
        <ele>20.6</ele>
        <time>2013-09-28T12:55:58Z</time>
      </trkpt>
      <trkpt lat="48.52398" lon="-2.62793">
        <ele>20.4</ele>
        <time>2013-09-28T12:55:59Z</time>
      </trkpt>
      <trkpt lat="48.5241" lon="-2.62809">
        <ele>16.7</ele>
        <time>2013-09-28T12:56:23Z</time>
      </trkpt>
      <trkpt lat="48.52417" lon="-2.62818">
        <ele>16.3</ele>
        <time>2013-09-28T12:56:35Z</time>
      </trkpt>
      <trkpt lat="48.52423" lon="-2.62826">
        <ele>14.7</ele>
        <time>2013-09-28T12:56:41Z</time>
      </trkpt>
      <trkpt lat="48.52427" lon="-2.62837">
        <ele>14.2</ele>
        <time>2013-09-28T12:56:51Z</time>
      </trkpt>
      <trkpt lat="48.52429" lon="-2.62851">
        <ele>15.1</ele>
        <time>2013-09-28T12:57:00Z</time>
      </trkpt>
      <trkpt lat="48.52429" lon="-2.62851">
        <ele>15.1</ele>
        <time>2013-09-28T12:57:01Z</time>
      </trkpt>
      <trkpt lat="48.52431" lon="-2.62876">
        <ele>17.4</ele>
        <time>2013-09-28T12:57:22Z</time>
      </trkpt>
      <trkpt lat="48.52434" lon="-2.62887">
        <ele>18.7</ele>
        <time>2013-09-28T12:57:34Z</time>
      </trkpt>
      <trkpt lat="48.52437" lon="-2.62897">
        <ele>18.7</ele>
        <time>2013-09-28T12:57:39Z</time>
      </trkpt>
      <trkpt lat="48.5244" lon="-2.62908">
        <ele>18.8</ele>
        <time>2013-09-28T12:57:45Z</time>
      </trkpt>
      <trkpt lat="48.52443" lon="-2.62921">
        <ele>18.4</ele>
        <time>2013-09-28T12:57:52Z</time>
      </trkpt>
      <trkpt lat="48.52446" lon="-2.62933">
        <ele>18.3</ele>
        <time>2013-09-28T12:58:00Z</time>
      </trkpt>
      <trkpt lat="48.52451" lon="-2.62944">
        <ele>18.6</ele>
        <time>2013-09-28T12:58:09Z</time>
      </trkpt>
      <trkpt lat="48.52451" lon="-2.62945">
        <ele>18.5</ele>
        <time>2013-09-28T12:58:10Z</time>
      </trkpt>
      <trkpt lat="48.52463" lon="-2.62961">
        <ele>18.5</ele>
        <time>2013-09-28T12:58:27Z</time>
      </trkpt>
      <trkpt lat="48.52471" lon="-2.62966">
        <ele>19.8</ele>
        <time>2013-09-28T12:58:38Z</time>
      </trkpt>
      <trkpt lat="48.52478" lon="-2.62971">
        <ele>20.7</ele>
        <time>2013-09-28T12:58:49Z</time>
      </trkpt>
      <trkpt lat="48.52487" lon="-2.62973">
        <ele>20.9</ele>
        <time>2013-09-28T12:58:59Z</time>
      </trkpt>
      <trkpt lat="48.52496" lon="-2.62976">
        <ele>20.3</ele>
        <time>2013-09-28T12:59:06Z</time>
      </trkpt>
      <trkpt lat="48.52504" lon="-2.62979">
        <ele>20.3</ele>
        <time>2013-09-28T12:59:14Z</time>
      </trkpt>
      <trkpt lat="48.52505" lon="-2.62979">
        <ele>20.5</ele>
        <time>2013-09-28T12:59:15Z</time>
      </trkpt>
      <trkpt lat="48.52521" lon="-2.6298">
        <ele>21.8</ele>
        <time>2013-09-28T12:59:33Z</time>
      </trkpt>
      <trkpt lat="48.5253" lon="-2.6298">
        <ele>21.1</ele>
        <time>2013-09-28T12:59:42Z</time>
      </trkpt>
      <trkpt lat="48.52538" lon="-2.62983">
        <ele>21.6</ele>
        <time>2013-09-28T12:59:58Z</time>
      </trkpt>
      <trkpt lat="48.52546" lon="-2.62988">
        <ele>22.9</ele>
        <time>2013-09-28T13:00:12Z</time>
      </trkpt>
      <trkpt lat="48.52555" lon="-2.62986">
        <ele>23.2</ele>
        <time>2013-09-28T13:00:23Z</time>
      </trkpt>
      <trkpt lat="48.52555" lon="-2.62986">
        <ele>22.8</ele>
        <time>2013-09-28T13:00:24Z</time>
      </trkpt>
      <trkpt lat="48.52572" lon="-2.62987">
        <ele>20</ele>
        <time>2013-09-28T13:00:42Z</time>
      </trkpt>
      <trkpt lat="48.52579" lon="-2.62995">
        <ele>19.5</ele>
        <time>2013-09-28T13:00:49Z</time>
      </trkpt>
      <trkpt lat="48.52584" lon="-2.63006">
        <ele>20</ele>
        <time>2013-09-28T13:00:56Z</time>
      </trkpt>
      <trkpt lat="48.52585" lon="-2.63018">
        <ele>18.5</ele>
        <time>2013-09-28T13:01:03Z</time>
      </trkpt>
      <trkpt lat="48.52582" lon="-2.6303">
        <ele>19.7</ele>
        <time>2013-09-28T13:01:12Z</time>
      </trkpt>
      <trkpt lat="48.52581" lon="-2.63042">
        <ele>20.7</ele>
        <time>2013-09-28T13:01:24Z</time>
      </trkpt>
      <trkpt lat="48.52581" lon="-2.63044">
        <ele>20.7</ele>
        <time>2013-09-28T13:01:25Z</time>
      </trkpt>
      <trkpt lat="48.52581" lon="-2.63069">
        <ele>20.5</ele>
        <time>2013-09-28T13:01:43Z</time>
      </trkpt>
      <trkpt lat="48.52585" lon="-2.6308">
        <ele>20.4</ele>
        <time>2013-09-28T13:02:16Z</time>
      </trkpt>
      <trkpt lat="48.52586" lon="-2.63093">
        <ele>19.6</ele>
        <time>2013-09-28T13:02:25Z</time>
      </trkpt>
      <trkpt lat="48.52586" lon="-2.63095">
        <ele>19.3</ele>
        <time>2013-09-28T13:02:26Z</time>
      </trkpt>
      <trkpt lat="48.52584" lon="-2.63118">
        <ele>18.9</ele>
        <time>2013-09-28T13:02:42Z</time>
      </trkpt>
      <trkpt lat="48.52581" lon="-2.6313">
        <ele>19.7</ele>
        <time>2013-09-28T13:02:53Z</time>
      </trkpt>
      <trkpt lat="48.52577" lon="-2.63141">
        <ele>21.2</ele>
        <time>2013-09-28T13:03:03Z</time>
      </trkpt>
      <trkpt lat="48.52573" lon="-2.63152">
        <ele>22.9</ele>
        <time>2013-09-28T13:03:18Z</time>
      </trkpt>
      <trkpt lat="48.52566" lon="-2.63161">
        <ele>23.9</ele>
        <time>2013-09-28T13:03:29Z</time>
      </trkpt>
      <trkpt lat="48.52566" lon="-2.63162">
        <ele>24</ele>
        <time>2013-09-28T13:03:30Z</time>
      </trkpt>
      <trkpt lat="48.52555" lon="-2.63179">
        <ele>25.1</ele>
        <time>2013-09-28T13:03:46Z</time>
      </trkpt>
      <trkpt lat="48.5255" lon="-2.6319">
        <ele>25.5</ele>
        <time>2013-09-28T13:03:54Z</time>
      </trkpt>
      <trkpt lat="48.52543" lon="-2.63197">
        <ele>28</ele>
        <time>2013-09-28T13:04:07Z</time>
      </trkpt>
      <trkpt lat="48.52538" lon="-2.63208">
        <ele>28.8</ele>
        <time>2013-09-28T13:04:15Z</time>
      </trkpt>
      <trkpt lat="48.52535" lon="-2.63219">
        <ele>29.1</ele>
        <time>2013-09-28T13:04:23Z</time>
      </trkpt>
      <trkpt lat="48.52529" lon="-2.63229">
        <ele>27.9</ele>
        <time>2013-09-28T13:04:32Z</time>
      </trkpt>
      <trkpt lat="48.52529" lon="-2.6323">
        <ele>27.4</ele>
        <time>2013-09-28T13:04:33Z</time>
      </trkpt>
      <trkpt lat="48.52524" lon="-2.63252">
        <ele>26.3</ele>
        <time>2013-09-28T13:05:02Z</time>
      </trkpt>
      <trkpt lat="48.5252" lon="-2.63264">
        <ele>25.4</ele>
        <time>2013-09-28T13:05:10Z</time>
      </trkpt>
      <trkpt lat="48.52515" lon="-2.63276">
        <ele>23.8</ele>
        <time>2013-09-28T13:05:19Z</time>
      </trkpt>
      <trkpt lat="48.52511" lon="-2.63286">
        <ele>24.3</ele>
        <time>2013-09-28T13:05:27Z</time>
      </trkpt>
      <trkpt lat="48.52504" lon="-2.63294">
        <ele>25.5</ele>
        <time>2013-09-28T13:05:35Z</time>
      </trkpt>
      <trkpt lat="48.52504" lon="-2.63295">
        <ele>25.4</ele>
        <time>2013-09-28T13:05:36Z</time>
      </trkpt>
      <trkpt lat="48.52495" lon="-2.63315">
        <ele>27.7</ele>
        <time>2013-09-28T13:06:13Z</time>
      </trkpt>
      <trkpt lat="48.52491" lon="-2.63327">
        <ele>28.2</ele>
        <time>2013-09-28T13:06:29Z</time>
      </trkpt>
      <trkpt lat="48.52488" lon="-2.63339">
        <ele>27.7</ele>
        <time>2013-09-28T13:06:40Z</time>
      </trkpt>
      <trkpt lat="48.52487" lon="-2.6334">
        <ele>27.5</ele>
        <time>2013-09-28T13:06:41Z</time>
      </trkpt>
      <trkpt lat="48.52478" lon="-2.6336">
        <ele>25.6</ele>
        <time>2013-09-28T13:07:01Z</time>
      </trkpt>
      <trkpt lat="48.52471" lon="-2.63369">
        <ele>27.9</ele>
        <time>2013-09-28T13:07:12Z</time>
      </trkpt>
      <trkpt lat="48.52467" lon="-2.63381">
        <ele>29</ele>
        <time>2013-09-28T13:07:20Z</time>
      </trkpt>
      <trkpt lat="48.52462" lon="-2.63391">
        <ele>28.7</ele>
        <time>2013-09-28T13:07:26Z</time>
      </trkpt>
      <trkpt lat="48.52456" lon="-2.63401">
        <ele>30</ele>
        <time>2013-09-28T13:07:35Z</time>
      </trkpt>
      <trkpt lat="48.5245" lon="-2.6341">
        <ele>32.9</ele>
        <time>2013-09-28T13:07:46Z</time>
      </trkpt>
      <trkpt lat="48.5245" lon="-2.63411">
        <ele>33.7</ele>
        <time>2013-09-28T13:07:47Z</time>
      </trkpt>
      <trkpt lat="48.5246" lon="-2.6343">
        <ele>33.5</ele>
        <time>2013-09-28T13:08:07Z</time>
      </trkpt>
      <trkpt lat="48.52463" lon="-2.63442">
        <ele>33.1</ele>
        <time>2013-09-28T13:08:14Z</time>
      </trkpt>
      <trkpt lat="48.52461" lon="-2.63455">
        <ele>32.4</ele>
        <time>2013-09-28T13:08:22Z</time>
      </trkpt>
      <trkpt lat="48.5246" lon="-2.63467">
        <ele>33.5</ele>
        <time>2013-09-28T13:08:30Z</time>
      </trkpt>
      <trkpt lat="48.52462" lon="-2.63478">
        <ele>33.6</ele>
        <time>2013-09-28T13:08:37Z</time>
      </trkpt>
      <trkpt lat="48.52463" lon="-2.63491">
        <ele>32.8</ele>
        <time>2013-09-28T13:08:45Z</time>
      </trkpt>
      <trkpt lat="48.52462" lon="-2.63504">
        <ele>31.6</ele>
        <time>2013-09-28T13:08:53Z</time>
      </trkpt>
      <trkpt lat="48.52462" lon="-2.63506">
        <ele>31.6</ele>
        <time>2013-09-28T13:08:54Z</time>
      </trkpt>
      <trkpt lat="48.52457" lon="-2.63527">
        <ele>32.1</ele>
        <time>2013-09-28T13:09:07Z</time>
      </trkpt>
      <trkpt lat="48.5245" lon="-2.63535">
        <ele>32.4</ele>
        <time>2013-09-28T13:09:15Z</time>
      </trkpt>
      <trkpt lat="48.52443" lon="-2.63544">
        <ele>33.1</ele>
        <time>2013-09-28T13:09:25Z</time>
      </trkpt>
      <trkpt lat="48.52439" lon="-2.63554">
        <ele>33</ele>
        <time>2013-09-28T13:09:33Z</time>
      </trkpt>
      <trkpt lat="48.52435" lon="-2.63565">
        <ele>32.2</ele>
        <time>2013-09-28T13:09:41Z</time>
      </trkpt>
      <trkpt lat="48.5243" lon="-2.63576">
        <ele>32.6</ele>
        <time>2013-09-28T13:09:53Z</time>
      </trkpt>
      <trkpt lat="48.52427" lon="-2.63587">
        <ele>31.7</ele>
        <time>2013-09-28T13:10:01Z</time>
      </trkpt>
      <trkpt lat="48.52427" lon="-2.63589">
        <ele>31.7</ele>
        <time>2013-09-28T13:10:02Z</time>
      </trkpt>
      <trkpt lat="48.52424" lon="-2.63613">
        <ele>30.6</ele>
        <time>2013-09-28T13:10:17Z</time>
      </trkpt>
      <trkpt lat="48.52422" lon="-2.63626">
        <ele>28.9</ele>
        <time>2013-09-28T13:10:25Z</time>
      </trkpt>
      <trkpt lat="48.52419" lon="-2.63638">
        <ele>28.6</ele>
        <time>2013-09-28T13:10:33Z</time>
      </trkpt>
      <trkpt lat="48.52418" lon="-2.63651">
        <ele>28.9</ele>
        <time>2013-09-28T13:10:42Z</time>
      </trkpt>
      <trkpt lat="48.52422" lon="-2.63662">
        <ele>27.7</ele>
        <time>2013-09-28T13:10:50Z</time>
      </trkpt>
      <trkpt lat="48.52425" lon="-2.63674">
        <ele>26.9</ele>
        <time>2013-09-28T13:10:58Z</time>
      </trkpt>
      <trkpt lat="48.52423" lon="-2.63686">
        <ele>27.3</ele>
        <time>2013-09-28T13:11:25Z</time>
      </trkpt>
      <trkpt lat="48.52423" lon="-2.63687">
        <ele>27.2</ele>
        <time>2013-09-28T13:11:26Z</time>
      </trkpt>
      <trkpt lat="48.52418" lon="-2.6371">
        <ele>27.3</ele>
        <time>2013-09-28T13:11:41Z</time>
      </trkpt>
      <trkpt lat="48.52415" lon="-2.63721">
        <ele>27.5</ele>
        <time>2013-09-28T13:11:49Z</time>
      </trkpt>
      <trkpt lat="48.52409" lon="-2.63732">
        <ele>27.7</ele>
        <time>2013-09-28T13:11:58Z</time>
      </trkpt>
      <trkpt lat="48.52404" lon="-2.63742">
        <ele>27.4</ele>
        <time>2013-09-28T13:12:07Z</time>
      </trkpt>
      <trkpt lat="48.524" lon="-2.63753">
        <ele>27.6</ele>
        <time>2013-09-28T13:12:15Z</time>
      </trkpt>
      <trkpt lat="48.52397" lon="-2.63766">
        <ele>26.5</ele>
        <time>2013-09-28T13:12:24Z</time>
      </trkpt>
      <trkpt lat="48.52395" lon="-2.63778">
        <ele>24.6</ele>
        <time>2013-09-28T13:12:37Z</time>
      </trkpt>
      <trkpt lat="48.52395" lon="-2.6378">
        <ele>24.7</ele>
        <time>2013-09-28T13:12:38Z</time>
      </trkpt>
      <trkpt lat="48.52386" lon="-2.63799">
        <ele>21.1</ele>
        <time>2013-09-28T13:12:58Z</time>
      </trkpt>
      <trkpt lat="48.52379" lon="-2.63805">
        <ele>19.9</ele>
        <time>2013-09-28T13:13:09Z</time>
      </trkpt>
      <trkpt lat="48.52371" lon="-2.638">
        <ele>19.2</ele>
        <time>2013-09-28T13:13:18Z</time>
      </trkpt>
      <trkpt lat="48.52362" lon="-2.638">
        <ele>18.3</ele>
        <time>2013-09-28T13:13:27Z</time>
      </trkpt>
      <trkpt lat="48.52357" lon="-2.63808">
        <ele>17.3</ele>
        <time>2013-09-28T13:13:34Z</time>
      </trkpt>
      <trkpt lat="48.52361" lon="-2.63819">
        <ele>15.3</ele>
        <time>2013-09-28T13:13:42Z</time>
      </trkpt>
      <trkpt lat="48.52362" lon="-2.6382">
        <ele>15.5</ele>
        <time>2013-09-28T13:13:43Z</time>
      </trkpt>
      <trkpt lat="48.52377" lon="-2.63828">
        <ele>14</ele>
        <time>2013-09-28T13:13:57Z</time>
      </trkpt>
      <trkpt lat="48.5238" lon="-2.6384">
        <ele>12.5</ele>
        <time>2013-09-28T13:14:17Z</time>
      </trkpt>
      <trkpt lat="48.52386" lon="-2.6385">
        <ele>9.6</ele>
        <time>2013-09-28T13:14:38Z</time>
      </trkpt>
      <trkpt lat="48.52392" lon="-2.63859">
        <ele>9.8</ele>
        <time>2013-09-28T13:14:48Z</time>
      </trkpt>
      <trkpt lat="48.52393" lon="-2.6386">
        <ele>9.6</ele>
        <time>2013-09-28T13:14:49Z</time>
      </trkpt>
      <trkpt lat="48.52399" lon="-2.63881">
        <ele>9.3</ele>
        <time>2013-09-28T13:15:03Z</time>
      </trkpt>
      <trkpt lat="48.52402" lon="-2.63893">
        <ele>9.1</ele>
        <time>2013-09-28T13:15:10Z</time>
      </trkpt>
      <trkpt lat="48.52403" lon="-2.63905">
        <ele>8.7</ele>
        <time>2013-09-28T13:15:17Z</time>
      </trkpt>
      <trkpt lat="48.52405" lon="-2.63918">
        <ele>9</ele>
        <time>2013-09-28T13:15:24Z</time>
      </trkpt>
      <trkpt lat="48.52407" lon="-2.6393">
        <ele>9.1</ele>
        <time>2013-09-28T13:15:31Z</time>
      </trkpt>
      <trkpt lat="48.52408" lon="-2.63943">
        <ele>9.8</ele>
        <time>2013-09-28T13:15:38Z</time>
      </trkpt>
      <trkpt lat="48.52409" lon="-2.63956">
        <ele>9.5</ele>
        <time>2013-09-28T13:15:45Z</time>
      </trkpt>
      <trkpt lat="48.52412" lon="-2.63968">
        <ele>9.2</ele>
        <time>2013-09-28T13:15:52Z</time>
      </trkpt>
      <trkpt lat="48.52412" lon="-2.6397">
        <ele>9.3</ele>
        <time>2013-09-28T13:15:53Z</time>
      </trkpt>
      <trkpt lat="48.52415" lon="-2.63994">
        <ele>8.7</ele>
        <time>2013-09-28T13:16:06Z</time>
      </trkpt>
      <trkpt lat="48.52417" lon="-2.64007">
        <ele>8.6</ele>
        <time>2013-09-28T13:16:13Z</time>
      </trkpt>
      <trkpt lat="48.52419" lon="-2.6402">
        <ele>9</ele>
        <time>2013-09-28T13:16:20Z</time>
      </trkpt>
      <trkpt lat="48.52422" lon="-2.64033">
        <ele>9.9</ele>
        <time>2013-09-28T13:16:27Z</time>
      </trkpt>
      <trkpt lat="48.52424" lon="-2.64045">
        <ele>9.9</ele>
        <time>2013-09-28T13:16:34Z</time>
      </trkpt>
      <trkpt lat="48.52427" lon="-2.64056">
        <ele>8.9</ele>
        <time>2013-09-28T13:16:40Z</time>
      </trkpt>
      <trkpt lat="48.52429" lon="-2.64068">
        <ele>9.2</ele>
        <time>2013-09-28T13:16:46Z</time>
      </trkpt>
      <trkpt lat="48.52431" lon="-2.64081">
        <ele>9.2</ele>
        <time>2013-09-28T13:16:53Z</time>
      </trkpt>
      <trkpt lat="48.52431" lon="-2.64082">
        <ele>9.2</ele>
        <time>2013-09-28T13:16:54Z</time>
      </trkpt>
      <trkpt lat="48.52435" lon="-2.64106">
        <ele>9.2</ele>
        <time>2013-09-28T13:17:07Z</time>
      </trkpt>
      <trkpt lat="48.52437" lon="-2.64118">
        <ele>9.6</ele>
        <time>2013-09-28T13:17:14Z</time>
      </trkpt>
      <trkpt lat="48.5244" lon="-2.64131">
        <ele>9.1</ele>
        <time>2013-09-28T13:17:21Z</time>
      </trkpt>
      <trkpt lat="48.52442" lon="-2.64143">
        <ele>9.3</ele>
        <time>2013-09-28T13:17:28Z</time>
      </trkpt>
      <trkpt lat="48.52442" lon="-2.64155">
        <ele>10</ele>
        <time>2013-09-28T13:17:35Z</time>
      </trkpt>
      <trkpt lat="48.52443" lon="-2.64167">
        <ele>9.8</ele>
        <time>2013-09-28T13:17:42Z</time>
      </trkpt>
      <trkpt lat="48.52444" lon="-2.64179">
        <ele>10.6</ele>
        <time>2013-09-28T13:17:49Z</time>
      </trkpt>
      <trkpt lat="48.52445" lon="-2.64193">
        <ele>10.4</ele>
        <time>2013-09-28T13:17:57Z</time>
      </trkpt>
      <trkpt lat="48.52445" lon="-2.64193">
        <ele>10.2</ele>
        <time>2013-09-28T13:17:58Z</time>
      </trkpt>
      <trkpt lat="48.52444" lon="-2.64217">
        <ele>11</ele>
        <time>2013-09-28T13:18:30Z</time>
      </trkpt>
      <trkpt lat="48.52446" lon="-2.64228">
        <ele>10.1</ele>
        <time>2013-09-28T13:18:37Z</time>
      </trkpt>
      <trkpt lat="48.52449" lon="-2.6424">
        <ele>9.8</ele>
        <time>2013-09-28T13:18:44Z</time>
      </trkpt>
      <trkpt lat="48.52452" lon="-2.64252">
        <ele>9.2</ele>
        <time>2013-09-28T13:18:51Z</time>
      </trkpt>
      <trkpt lat="48.52454" lon="-2.64265">
        <ele>9.8</ele>
        <time>2013-09-28T13:18:58Z</time>
      </trkpt>
      <trkpt lat="48.52455" lon="-2.64267">
        <ele>10.2</ele>
        <time>2013-09-28T13:18:59Z</time>
      </trkpt>
      <trkpt lat="48.52459" lon="-2.64291">
        <ele>10.6</ele>
        <time>2013-09-28T13:19:12Z</time>
      </trkpt>
      <trkpt lat="48.52461" lon="-2.64304">
        <ele>10.5</ele>
        <time>2013-09-28T13:19:19Z</time>
      </trkpt>
      <trkpt lat="48.52462" lon="-2.64316">
        <ele>10.5</ele>
        <time>2013-09-28T13:19:25Z</time>
      </trkpt>
      <trkpt lat="48.52463" lon="-2.64328">
        <ele>10.5</ele>
        <time>2013-09-28T13:19:31Z</time>
      </trkpt>
      <trkpt lat="48.52466" lon="-2.64339">
        <ele>11.2</ele>
        <time>2013-09-28T13:19:37Z</time>
      </trkpt>
      <trkpt lat="48.52468" lon="-2.6435">
        <ele>11.1</ele>
        <time>2013-09-28T13:19:43Z</time>
      </trkpt>
      <trkpt lat="48.5247" lon="-2.64362">
        <ele>10.8</ele>
        <time>2013-09-28T13:19:49Z</time>
      </trkpt>
      <trkpt lat="48.52471" lon="-2.64374">
        <ele>11</ele>
        <time>2013-09-28T13:19:55Z</time>
      </trkpt>
      <trkpt lat="48.52473" lon="-2.64386">
        <ele>9.8</ele>
        <time>2013-09-28T13:20:01Z</time>
      </trkpt>
      <trkpt lat="48.52473" lon="-2.64388">
        <ele>10.1</ele>
        <time>2013-09-28T13:20:02Z</time>
      </trkpt>
      <trkpt lat="48.52474" lon="-2.64411">
        <ele>10.2</ele>
        <time>2013-09-28T13:20:14Z</time>
      </trkpt>
      <trkpt lat="48.52476" lon="-2.64423">
        <ele>10.3</ele>
        <time>2013-09-28T13:20:20Z</time>
      </trkpt>
      <trkpt lat="48.52478" lon="-2.64435">
        <ele>11.2</ele>
        <time>2013-09-28T13:20:26Z</time>
      </trkpt>
      <trkpt lat="48.52479" lon="-2.64448">
        <ele>11</ele>
        <time>2013-09-28T13:20:33Z</time>
      </trkpt>
      <trkpt lat="48.5248" lon="-2.64461">
        <ele>10.6</ele>
        <time>2013-09-28T13:20:40Z</time>
      </trkpt>
      <trkpt lat="48.52481" lon="-2.64475">
        <ele>11.3</ele>
        <time>2013-09-28T13:20:47Z</time>
      </trkpt>
      <trkpt lat="48.52482" lon="-2.64486">
        <ele>10.6</ele>
        <time>2013-09-28T13:20:53Z</time>
      </trkpt>
      <trkpt lat="48.52484" lon="-2.64499">
        <ele>10.7</ele>
        <time>2013-09-28T13:21:00Z</time>
      </trkpt>
      <trkpt lat="48.52485" lon="-2.64513">
        <ele>9.8</ele>
        <time>2013-09-28T13:21:07Z</time>
      </trkpt>
      <trkpt lat="48.52485" lon="-2.64514">
        <ele>10.4</ele>
        <time>2013-09-28T13:21:08Z</time>
      </trkpt>
      <trkpt lat="48.52488" lon="-2.64537">
        <ele>11.1</ele>
        <time>2013-09-28T13:21:20Z</time>
      </trkpt>
      <trkpt lat="48.52489" lon="-2.64549">
        <ele>10.8</ele>
        <time>2013-09-28T13:21:26Z</time>
      </trkpt>
      <trkpt lat="48.5249" lon="-2.64561">
        <ele>10.8</ele>
        <time>2013-09-28T13:21:32Z</time>
      </trkpt>
      <trkpt lat="48.52491" lon="-2.64572">
        <ele>11</ele>
        <time>2013-09-28T13:21:38Z</time>
      </trkpt>
      <trkpt lat="48.52492" lon="-2.64584">
        <ele>11.4</ele>
        <time>2013-09-28T13:21:44Z</time>
      </trkpt>
      <trkpt lat="48.52493" lon="-2.64596">
        <ele>10.8</ele>
        <time>2013-09-28T13:21:50Z</time>
      </trkpt>
      <trkpt lat="48.52494" lon="-2.64607">
        <ele>11</ele>
        <time>2013-09-28T13:21:56Z</time>
      </trkpt>
      <trkpt lat="48.52495" lon="-2.6462">
        <ele>11.1</ele>
        <time>2013-09-28T13:22:03Z</time>
      </trkpt>
      <trkpt lat="48.52496" lon="-2.64634">
        <ele>10.8</ele>
        <time>2013-09-28T13:22:10Z</time>
      </trkpt>
      <trkpt lat="48.52496" lon="-2.64636">
        <ele>10.8</ele>
        <time>2013-09-28T13:22:11Z</time>
      </trkpt>
      <trkpt lat="48.52498" lon="-2.64658">
        <ele>10.7</ele>
        <time>2013-09-28T13:22:22Z</time>
      </trkpt>
      <trkpt lat="48.525" lon="-2.64669">
        <ele>10.8</ele>
        <time>2013-09-28T13:22:28Z</time>
      </trkpt>
      <trkpt lat="48.52501" lon="-2.64681">
        <ele>10.8</ele>
        <time>2013-09-28T13:22:34Z</time>
      </trkpt>
      <trkpt lat="48.52502" lon="-2.64693">
        <ele>10.1</ele>
        <time>2013-09-28T13:22:40Z</time>
      </trkpt>
      <trkpt lat="48.52504" lon="-2.64706">
        <ele>11.8</ele>
        <time>2013-09-28T13:22:46Z</time>
      </trkpt>
      <trkpt lat="48.52505" lon="-2.64717">
        <ele>10.4</ele>
        <time>2013-09-28T13:22:52Z</time>
      </trkpt>
      <trkpt lat="48.52506" lon="-2.64729">
        <ele>11.4</ele>
        <time>2013-09-28T13:22:58Z</time>
      </trkpt>
      <trkpt lat="48.52508" lon="-2.64741">
        <ele>11.6</ele>
        <time>2013-09-28T13:23:04Z</time>
      </trkpt>
      <trkpt lat="48.52509" lon="-2.64754">
        <ele>11.2</ele>
        <time>2013-09-28T13:23:11Z</time>
      </trkpt>
      <trkpt lat="48.5251" lon="-2.64756">
        <ele>11.1</ele>
        <time>2013-09-28T13:23:12Z</time>
      </trkpt>
      <trkpt lat="48.52514" lon="-2.64778">
        <ele>10.7</ele>
        <time>2013-09-28T13:23:24Z</time>
      </trkpt>
      <trkpt lat="48.52516" lon="-2.64791">
        <ele>11.5</ele>
        <time>2013-09-28T13:23:31Z</time>
      </trkpt>
      <trkpt lat="48.52518" lon="-2.64802">
        <ele>12.1</ele>
        <time>2013-09-28T13:23:37Z</time>
      </trkpt>
      <trkpt lat="48.5252" lon="-2.64814">
        <ele>11</ele>
        <time>2013-09-28T13:23:43Z</time>
      </trkpt>
      <trkpt lat="48.52522" lon="-2.64825">
        <ele>10.8</ele>
        <time>2013-09-28T13:23:49Z</time>
      </trkpt>
      <trkpt lat="48.52524" lon="-2.64837">
        <ele>11.5</ele>
        <time>2013-09-28T13:23:55Z</time>
      </trkpt>
      <trkpt lat="48.52526" lon="-2.64849">
        <ele>11.2</ele>
        <time>2013-09-28T13:24:02Z</time>
      </trkpt>
      <trkpt lat="48.52528" lon="-2.64862">
        <ele>11.8</ele>
        <time>2013-09-28T13:24:09Z</time>
      </trkpt>
      <trkpt lat="48.52531" lon="-2.64874">
        <ele>11.6</ele>
        <time>2013-09-28T13:24:16Z</time>
      </trkpt>
      <trkpt lat="48.52531" lon="-2.64876">
        <ele>11.4</ele>
        <time>2013-09-28T13:24:17Z</time>
      </trkpt>
      <trkpt lat="48.52536" lon="-2.64898">
        <ele>11.3</ele>
        <time>2013-09-28T13:24:30Z</time>
      </trkpt>
      <trkpt lat="48.52539" lon="-2.64909">
        <ele>11.5</ele>
        <time>2013-09-28T13:24:37Z</time>
      </trkpt>
      <trkpt lat="48.52543" lon="-2.6492">
        <ele>11.2</ele>
        <time>2013-09-28T13:24:44Z</time>
      </trkpt>
      <trkpt lat="48.52545" lon="-2.64933">
        <ele>11.2</ele>
        <time>2013-09-28T13:24:52Z</time>
      </trkpt>
      <trkpt lat="48.52548" lon="-2.64946">
        <ele>11.4</ele>
        <time>2013-09-28T13:25:00Z</time>
      </trkpt>
      <trkpt lat="48.52551" lon="-2.64958">
        <ele>11.8</ele>
        <time>2013-09-28T13:25:07Z</time>
      </trkpt>
      <trkpt lat="48.52555" lon="-2.6497">
        <ele>10.8</ele>
        <time>2013-09-28T13:25:14Z</time>
      </trkpt>
      <trkpt lat="48.52557" lon="-2.64981">
        <ele>11.5</ele>
        <time>2013-09-28T13:25:21Z</time>
      </trkpt>
      <trkpt lat="48.52558" lon="-2.64983">
        <ele>11.5</ele>
        <time>2013-09-28T13:25:22Z</time>
      </trkpt>
      <trkpt lat="48.52563" lon="-2.65004">
        <ele>10.9</ele>
        <time>2013-09-28T13:25:35Z</time>
      </trkpt>
      <trkpt lat="48.52565" lon="-2.65016">
        <ele>11.5</ele>
        <time>2013-09-28T13:25:42Z</time>
      </trkpt>
      <trkpt lat="48.52566" lon="-2.65029">
        <ele>11.1</ele>
        <time>2013-09-28T13:25:49Z</time>
      </trkpt>
      <trkpt lat="48.52567" lon="-2.65042">
        <ele>11.2</ele>
        <time>2013-09-28T13:25:57Z</time>
      </trkpt>
      <trkpt lat="48.52568" lon="-2.65053">
        <ele>11.5</ele>
        <time>2013-09-28T13:26:04Z</time>
      </trkpt>
      <trkpt lat="48.52569" lon="-2.65067">
        <ele>11.9</ele>
        <time>2013-09-28T13:26:12Z</time>
      </trkpt>
      <trkpt lat="48.52568" lon="-2.65079">
        <ele>11.6</ele>
        <time>2013-09-28T13:26:20Z</time>
      </trkpt>
      <trkpt lat="48.52568" lon="-2.65092">
        <ele>10.9</ele>
        <time>2013-09-28T13:26:29Z</time>
      </trkpt>
      <trkpt lat="48.52568" lon="-2.65094">
        <ele>10.8</ele>
        <time>2013-09-28T13:26:30Z</time>
      </trkpt>
      <trkpt lat="48.52564" lon="-2.65116">
        <ele>11.2</ele>
        <time>2013-09-28T13:26:45Z</time>
      </trkpt>
      <trkpt lat="48.52563" lon="-2.65129">
        <ele>11.4</ele>
        <time>2013-09-28T13:26:53Z</time>
      </trkpt>
      <trkpt lat="48.52562" lon="-2.65142">
        <ele>11.1</ele>
        <time>2013-09-28T13:27:01Z</time>
      </trkpt>
      <trkpt lat="48.52562" lon="-2.65154">
        <ele>11.9</ele>
        <time>2013-09-28T13:27:09Z</time>
      </trkpt>
      <trkpt lat="48.5256" lon="-2.65167">
        <ele>12</ele>
        <time>2013-09-28T13:27:17Z</time>
      </trkpt>
      <trkpt lat="48.52559" lon="-2.65179">
        <ele>12.4</ele>
        <time>2013-09-28T13:27:26Z</time>
      </trkpt>
      <trkpt lat="48.52557" lon="-2.65191">
        <ele>12.5</ele>
        <time>2013-09-28T13:27:34Z</time>
      </trkpt>
      <trkpt lat="48.52557" lon="-2.65192">
        <ele>12.5</ele>
        <time>2013-09-28T13:27:35Z</time>
      </trkpt>
      <trkpt lat="48.52555" lon="-2.65217">
        <ele>12.2</ele>
        <time>2013-09-28T13:27:51Z</time>
      </trkpt>
      <trkpt lat="48.52556" lon="-2.6523">
        <ele>11.8</ele>
        <time>2013-09-28T13:27:59Z</time>
      </trkpt>
      <trkpt lat="48.52557" lon="-2.65243">
        <ele>11.8</ele>
        <time>2013-09-28T13:28:07Z</time>
      </trkpt>
      <trkpt lat="48.52557" lon="-2.65255">
        <ele>12.5</ele>
        <time>2013-09-28T13:28:14Z</time>
      </trkpt>
      <trkpt lat="48.52556" lon="-2.65268">
        <ele>12.1</ele>
        <time>2013-09-28T13:28:21Z</time>
      </trkpt>
      <trkpt lat="48.52554" lon="-2.6528">
        <ele>12.6</ele>
        <time>2013-09-28T13:28:29Z</time>
      </trkpt>
      <trkpt lat="48.52553" lon="-2.65292">
        <ele>12</ele>
        <time>2013-09-28T13:28:37Z</time>
      </trkpt>
      <trkpt lat="48.52553" lon="-2.65294">
        <ele>11.7</ele>
        <time>2013-09-28T13:28:38Z</time>
      </trkpt>
      <trkpt lat="48.5255" lon="-2.65317">
        <ele>12.7</ele>
        <time>2013-09-28T13:28:52Z</time>
      </trkpt>
      <trkpt lat="48.52548" lon="-2.6533">
        <ele>12.5</ele>
        <time>2013-09-28T13:29:00Z</time>
      </trkpt>
      <trkpt lat="48.52546" lon="-2.65343">
        <ele>12.8</ele>
        <time>2013-09-28T13:29:08Z</time>
      </trkpt>
      <trkpt lat="48.52543" lon="-2.65355">
        <ele>12</ele>
        <time>2013-09-28T13:29:16Z</time>
      </trkpt>
      <trkpt lat="48.52541" lon="-2.65367">
        <ele>12.4</ele>
        <time>2013-09-28T13:29:24Z</time>
      </trkpt>
      <trkpt lat="48.52538" lon="-2.6538">
        <ele>12.4</ele>
        <time>2013-09-28T13:29:32Z</time>
      </trkpt>
      <trkpt lat="48.52536" lon="-2.65392">
        <ele>11.9</ele>
        <time>2013-09-28T13:29:40Z</time>
      </trkpt>
      <trkpt lat="48.52536" lon="-2.65394">
        <ele>12.3</ele>
        <time>2013-09-28T13:29:41Z</time>
      </trkpt>
      <trkpt lat="48.5253" lon="-2.65416">
        <ele>12.5</ele>
        <time>2013-09-28T13:29:56Z</time>
      </trkpt>
      <trkpt lat="48.52523" lon="-2.65425">
        <ele>13.5</ele>
        <time>2013-09-28T13:30:17Z</time>
      </trkpt>
      <trkpt lat="48.52517" lon="-2.65434">
        <ele>12.9</ele>
        <time>2013-09-28T13:30:26Z</time>
      </trkpt>
      <trkpt lat="48.5251" lon="-2.65442">
        <ele>12.9</ele>
        <time>2013-09-28T13:30:36Z</time>
      </trkpt>
      <trkpt lat="48.52502" lon="-2.65442">
        <ele>13.5</ele>
        <time>2013-09-28T13:35:29Z</time>
      </trkpt>
      <trkpt lat="48.52501" lon="-2.65442">
        <ele>13.5</ele>
        <time>2013-09-28T13:35:30Z</time>
      </trkpt>
      <trkpt lat="48.52486" lon="-2.65452">
        <ele>12.7</ele>
        <time>2013-09-28T13:35:45Z</time>
      </trkpt>
      <trkpt lat="48.52478" lon="-2.65454">
        <ele>13.1</ele>
        <time>2013-09-28T13:35:52Z</time>
      </trkpt>
      <trkpt lat="48.5247" lon="-2.65458">
        <ele>13.9</ele>
        <time>2013-09-28T13:36:00Z</time>
      </trkpt>
      <trkpt lat="48.52463" lon="-2.65463">
        <ele>13.2</ele>
        <time>2013-09-28T13:36:07Z</time>
      </trkpt>
      <trkpt lat="48.52455" lon="-2.65468">
        <ele>13.6</ele>
        <time>2013-09-28T13:36:15Z</time>
      </trkpt>
      <trkpt lat="48.52447" lon="-2.65474">
        <ele>14.1</ele>
        <time>2013-09-28T13:36:23Z</time>
      </trkpt>
      <trkpt lat="48.52439" lon="-2.65478">
        <ele>13.8</ele>
        <time>2013-09-28T13:36:31Z</time>
      </trkpt>
      <trkpt lat="48.52438" lon="-2.65479">
        <ele>13.9</ele>
        <time>2013-09-28T13:36:32Z</time>
      </trkpt>
      <trkpt lat="48.52423" lon="-2.65487">
        <ele>14.6</ele>
        <time>2013-09-28T13:36:45Z</time>
      </trkpt>
      <trkpt lat="48.52415" lon="-2.65492">
        <ele>14</ele>
        <time>2013-09-28T13:36:52Z</time>
      </trkpt>
      <trkpt lat="48.52407" lon="-2.65497">
        <ele>13.8</ele>
        <time>2013-09-28T13:36:59Z</time>
      </trkpt>
      <trkpt lat="48.52399" lon="-2.65501">
        <ele>15.1</ele>
        <time>2013-09-28T13:37:05Z</time>
      </trkpt>
      <trkpt lat="48.52391" lon="-2.65505">
        <ele>14</ele>
        <time>2013-09-28T13:37:12Z</time>
      </trkpt>
      <trkpt lat="48.52383" lon="-2.6551">
        <ele>14.5</ele>
        <time>2013-09-28T13:37:19Z</time>
      </trkpt>
      <trkpt lat="48.52375" lon="-2.65514">
        <ele>15.1</ele>
        <time>2013-09-28T13:37:26Z</time>
      </trkpt>
      <trkpt lat="48.52367" lon="-2.65519">
        <ele>15.1</ele>
        <time>2013-09-28T13:37:33Z</time>
      </trkpt>
      <trkpt lat="48.52366" lon="-2.6552">
        <ele>15</ele>
        <time>2013-09-28T13:37:34Z</time>
      </trkpt>
      <trkpt lat="48.52352" lon="-2.65529">
        <ele>15.4</ele>
        <time>2013-09-28T13:37:45Z</time>
      </trkpt>
      <trkpt lat="48.52345" lon="-2.65534">
        <ele>15.1</ele>
        <time>2013-09-28T13:37:52Z</time>
      </trkpt>
      <trkpt lat="48.52337" lon="-2.65541">
        <ele>16.1</ele>
        <time>2013-09-28T13:37:59Z</time>
      </trkpt>
      <trkpt lat="48.52331" lon="-2.6555">
        <ele>16.1</ele>
        <time>2013-09-28T13:38:06Z</time>
      </trkpt>
      <trkpt lat="48.52329" lon="-2.65562">
        <ele>15.8</ele>
        <time>2013-09-28T13:38:13Z</time>
      </trkpt>
      <trkpt lat="48.52332" lon="-2.65573">
        <ele>16.7</ele>
        <time>2013-09-28T13:38:19Z</time>
      </trkpt>
      <trkpt lat="48.52338" lon="-2.65582">
        <ele>16.7</ele>
        <time>2013-09-28T13:38:25Z</time>
      </trkpt>
      <trkpt lat="48.52344" lon="-2.65591">
        <ele>16.5</ele>
        <time>2013-09-28T13:38:32Z</time>
      </trkpt>
      <trkpt lat="48.5235" lon="-2.65599">
        <ele>17.3</ele>
        <time>2013-09-28T13:38:39Z</time>
      </trkpt>
      <trkpt lat="48.52351" lon="-2.656">
        <ele>17.3</ele>
        <time>2013-09-28T13:38:40Z</time>
      </trkpt>
      <trkpt lat="48.52364" lon="-2.65612">
        <ele>17.5</ele>
        <time>2013-09-28T13:38:53Z</time>
      </trkpt>
      <trkpt lat="48.52372" lon="-2.65618">
        <ele>19.1</ele>
        <time>2013-09-28T13:39:00Z</time>
      </trkpt>
      <trkpt lat="48.5238" lon="-2.65622">
        <ele>18.7</ele>
        <time>2013-09-28T13:39:07Z</time>
      </trkpt>
      <trkpt lat="48.52388" lon="-2.65626">
        <ele>18.7</ele>
        <time>2013-09-28T13:39:14Z</time>
      </trkpt>
      <trkpt lat="48.52396" lon="-2.65631">
        <ele>19.5</ele>
        <time>2013-09-28T13:39:21Z</time>
      </trkpt>
      <trkpt lat="48.52404" lon="-2.65636">
        <ele>20.4</ele>
        <time>2013-09-28T13:39:28Z</time>
      </trkpt>
      <trkpt lat="48.52411" lon="-2.65639">
        <ele>20.1</ele>
        <time>2013-09-28T13:39:35Z</time>
      </trkpt>
      <trkpt lat="48.52419" lon="-2.65644">
        <ele>21.5</ele>
        <time>2013-09-28T13:39:42Z</time>
      </trkpt>
      <trkpt lat="48.5242" lon="-2.65645">
        <ele>21.5</ele>
        <time>2013-09-28T13:39:43Z</time>
      </trkpt>
      <trkpt lat="48.52434" lon="-2.65656">
        <ele>20.2</ele>
        <time>2013-09-28T13:39:56Z</time>
      </trkpt>
      <trkpt lat="48.52442" lon="-2.65662">
        <ele>21.5</ele>
        <time>2013-09-28T13:40:03Z</time>
      </trkpt>
      <trkpt lat="48.52449" lon="-2.65669">
        <ele>22</ele>
        <time>2013-09-28T13:40:09Z</time>
      </trkpt>
      <trkpt lat="48.52455" lon="-2.65676">
        <ele>22</ele>
        <time>2013-09-28T13:40:15Z</time>
      </trkpt>
      <trkpt lat="48.52461" lon="-2.65683">
        <ele>23</ele>
        <time>2013-09-28T13:40:21Z</time>
      </trkpt>
      <trkpt lat="48.52468" lon="-2.65691">
        <ele>23.8</ele>
        <time>2013-09-28T13:40:28Z</time>
      </trkpt>
      <trkpt lat="48.52475" lon="-2.65698">
        <ele>23.1</ele>
        <time>2013-09-28T13:40:35Z</time>
      </trkpt>
      <trkpt lat="48.52481" lon="-2.65706">
        <ele>23.1</ele>
        <time>2013-09-28T13:40:42Z</time>
      </trkpt>
      <trkpt lat="48.52487" lon="-2.65717">
        <ele>23.4</ele>
        <time>2013-09-28T13:40:49Z</time>
      </trkpt>
      <trkpt lat="48.52487" lon="-2.65718">
        <ele>23.4</ele>
        <time>2013-09-28T13:40:50Z</time>
      </trkpt>
      <trkpt lat="48.52494" lon="-2.65739">
        <ele>24</ele>
        <time>2013-09-28T13:41:02Z</time>
      </trkpt>
      <trkpt lat="48.52496" lon="-2.65752">
        <ele>24.3</ele>
        <time>2013-09-28T13:41:09Z</time>
      </trkpt>
      <trkpt lat="48.52496" lon="-2.65766">
        <ele>24.2</ele>
        <time>2013-09-28T13:41:17Z</time>
      </trkpt>
      <trkpt lat="48.525" lon="-2.65777">
        <ele>24.3</ele>
        <time>2013-09-28T13:41:24Z</time>
      </trkpt>
      <trkpt lat="48.52503" lon="-2.65788">
        <ele>24.9</ele>
        <time>2013-09-28T13:41:31Z</time>
      </trkpt>
      <trkpt lat="48.52507" lon="-2.658">
        <ele>24.7</ele>
        <time>2013-09-28T13:41:38Z</time>
      </trkpt>
      <trkpt lat="48.52512" lon="-2.65809">
        <ele>24.7</ele>
        <time>2013-09-28T13:41:45Z</time>
      </trkpt>
      <trkpt lat="48.52516" lon="-2.65821">
        <ele>25</ele>
        <time>2013-09-28T13:41:52Z</time>
      </trkpt>
      <trkpt lat="48.52516" lon="-2.65822">
        <ele>25.2</ele>
        <time>2013-09-28T13:41:53Z</time>
      </trkpt>
      <trkpt lat="48.52522" lon="-2.65844">
        <ele>25.6</ele>
        <time>2013-09-28T13:42:06Z</time>
      </trkpt>
      <trkpt lat="48.52527" lon="-2.65855">
        <ele>25.4</ele>
        <time>2013-09-28T13:42:13Z</time>
      </trkpt>
      <trkpt lat="48.52535" lon="-2.65855">
        <ele>26.2</ele>
        <time>2013-09-28T13:42:28Z</time>
      </trkpt>
      <trkpt lat="48.52542" lon="-2.65848">
        <ele>24.4</ele>
        <time>2013-09-28T13:42:35Z</time>
      </trkpt>
      <trkpt lat="48.52551" lon="-2.65851">
        <ele>25.3</ele>
        <time>2013-09-28T13:43:08Z</time>
      </trkpt>
      <trkpt lat="48.52551" lon="-2.65852">
        <ele>25</ele>
        <time>2013-09-28T13:43:09Z</time>
      </trkpt>
      <trkpt lat="48.52561" lon="-2.65873">
        <ele>25.1</ele>
        <time>2013-09-28T13:43:35Z</time>
      </trkpt>
      <trkpt lat="48.52567" lon="-2.65882">
        <ele>26.6</ele>
        <time>2013-09-28T13:43:44Z</time>
      </trkpt>
      <trkpt lat="48.52574" lon="-2.65889">
        <ele>27.8</ele>
        <time>2013-09-28T13:43:52Z</time>
      </trkpt>
      <trkpt lat="48.52581" lon="-2.65895">
        <ele>27.6</ele>
        <time>2013-09-28T13:44:00Z</time>
      </trkpt>
      <trkpt lat="48.52588" lon="-2.65901">
        <ele>28.4</ele>
        <time>2013-09-28T13:44:08Z</time>
      </trkpt>
      <trkpt lat="48.52596" lon="-2.65905">
        <ele>29</ele>
        <time>2013-09-28T13:44:16Z</time>
      </trkpt>
      <trkpt lat="48.52597" lon="-2.65906">
        <ele>29.1</ele>
        <time>2013-09-28T13:44:17Z</time>
      </trkpt>
      <trkpt lat="48.52612" lon="-2.65904">
        <ele>30.1</ele>
        <time>2013-09-28T13:44:32Z</time>
      </trkpt>
      <trkpt lat="48.52619" lon="-2.65898">
        <ele>29.7</ele>
        <time>2013-09-28T13:44:40Z</time>
      </trkpt>
      <trkpt lat="48.52627" lon="-2.65894">
        <ele>30.2</ele>
        <time>2013-09-28T13:44:48Z</time>
      </trkpt>
      <trkpt lat="48.52636" lon="-2.65892">
        <ele>30.7</ele>
        <time>2013-09-28T13:44:56Z</time>
      </trkpt>
      <trkpt lat="48.52644" lon="-2.6589">
        <ele>30.1</ele>
        <time>2013-09-28T13:45:03Z</time>
      </trkpt>
      <trkpt lat="48.52652" lon="-2.65889">
        <ele>30.6</ele>
        <time>2013-09-28T13:45:10Z</time>
      </trkpt>
      <trkpt lat="48.52661" lon="-2.65889">
        <ele>30.3</ele>
        <time>2013-09-28T13:45:18Z</time>
      </trkpt>
      <trkpt lat="48.52662" lon="-2.65889">
        <ele>30.3</ele>
        <time>2013-09-28T13:45:19Z</time>
      </trkpt>
      <trkpt lat="48.52678" lon="-2.65887">
        <ele>31.6</ele>
        <time>2013-09-28T13:45:34Z</time>
      </trkpt>
      <trkpt lat="48.52686" lon="-2.65884">
        <ele>32.4</ele>
        <time>2013-09-28T13:45:42Z</time>
      </trkpt>
      <trkpt lat="48.52694" lon="-2.65883">
        <ele>31.9</ele>
        <time>2013-09-28T13:45:50Z</time>
      </trkpt>
      <trkpt lat="48.52701" lon="-2.65891">
        <ele>33.3</ele>
        <time>2013-09-28T13:45:59Z</time>
      </trkpt>
      <trkpt lat="48.52708" lon="-2.65899">
        <ele>34.1</ele>
        <time>2013-09-28T13:46:08Z</time>
      </trkpt>
      <trkpt lat="48.52715" lon="-2.65905">
        <ele>35.2</ele>
        <time>2013-09-28T13:46:17Z</time>
      </trkpt>
      <trkpt lat="48.52722" lon="-2.65913">
        <ele>35.1</ele>
        <time>2013-09-28T13:46:27Z</time>
      </trkpt>
      <trkpt lat="48.52723" lon="-2.65914">
        <ele>35.1</ele>
        <time>2013-09-28T13:46:28Z</time>
      </trkpt>
      <trkpt lat="48.52735" lon="-2.65929">
        <ele>36.2</ele>
        <time>2013-09-28T13:46:39Z</time>
      </trkpt>
      <trkpt lat="48.52742" lon="-2.65937">
        <ele>36</ele>
        <time>2013-09-28T13:46:45Z</time>
      </trkpt>
      <trkpt lat="48.5275" lon="-2.65941">
        <ele>36.2</ele>
        <time>2013-09-28T13:46:53Z</time>
      </trkpt>
      <trkpt lat="48.52759" lon="-2.65942">
        <ele>35.7</ele>
        <time>2013-09-28T13:47:00Z</time>
      </trkpt>
      <trkpt lat="48.52767" lon="-2.65944">
        <ele>34.1</ele>
        <time>2013-09-28T13:47:07Z</time>
      </trkpt>
      <trkpt lat="48.52774" lon="-2.65947">
        <ele>33.4</ele>
        <time>2013-09-28T13:47:14Z</time>
      </trkpt>
      <trkpt lat="48.52783" lon="-2.65948">
        <ele>32.1</ele>
        <time>2013-09-28T13:47:21Z</time>
      </trkpt>
      <trkpt lat="48.5279" lon="-2.65949">
        <ele>32.1</ele>
        <time>2013-09-28T13:47:27Z</time>
      </trkpt>
      <trkpt lat="48.52799" lon="-2.65952">
        <ele>30.7</ele>
        <time>2013-09-28T13:47:34Z</time>
      </trkpt>
      <trkpt lat="48.528" lon="-2.65952">
        <ele>30.8</ele>
        <time>2013-09-28T13:47:35Z</time>
      </trkpt>
      <trkpt lat="48.52815" lon="-2.65949">
        <ele>29.8</ele>
        <time>2013-09-28T13:47:49Z</time>
      </trkpt>
      <trkpt lat="48.52822" lon="-2.65943">
        <ele>29.4</ele>
        <time>2013-09-28T13:47:56Z</time>
      </trkpt>
      <trkpt lat="48.5283" lon="-2.65936">
        <ele>30.6</ele>
        <time>2013-09-28T13:48:03Z</time>
      </trkpt>
      <trkpt lat="48.52838" lon="-2.65934">
        <ele>30.2</ele>
        <time>2013-09-28T13:48:10Z</time>
      </trkpt>
      <trkpt lat="48.52846" lon="-2.65941">
        <ele>30.5</ele>
        <time>2013-09-28T13:48:17Z</time>
      </trkpt>
      <trkpt lat="48.52854" lon="-2.65946">
        <ele>30.7</ele>
        <time>2013-09-28T13:48:25Z</time>
      </trkpt>
      <trkpt lat="48.52862" lon="-2.65949">
        <ele>31.6</ele>
        <time>2013-09-28T13:48:33Z</time>
      </trkpt>
      <trkpt lat="48.5287" lon="-2.6595">
        <ele>32.5</ele>
        <time>2013-09-28T13:48:41Z</time>
      </trkpt>
      <trkpt lat="48.52871" lon="-2.6595">
        <ele>32.4</ele>
        <time>2013-09-28T13:48:42Z</time>
      </trkpt>
      <trkpt lat="48.52886" lon="-2.65941">
        <ele>33.3</ele>
        <time>2013-09-28T13:48:56Z</time>
      </trkpt>
      <trkpt lat="48.52893" lon="-2.65934">
        <ele>33.5</ele>
        <time>2013-09-28T13:49:17Z</time>
      </trkpt>
      <trkpt lat="48.529" lon="-2.65926">
        <ele>32.7</ele>
        <time>2013-09-28T13:49:26Z</time>
      </trkpt>
      <trkpt lat="48.52907" lon="-2.6592">
        <ele>31.1</ele>
        <time>2013-09-28T13:49:33Z</time>
      </trkpt>
      <trkpt lat="48.52914" lon="-2.65913">
        <ele>31</ele>
        <time>2013-09-28T13:49:40Z</time>
      </trkpt>
      <trkpt lat="48.52921" lon="-2.65905">
        <ele>30.7</ele>
        <time>2013-09-28T13:49:48Z</time>
      </trkpt>
      <trkpt lat="48.52922" lon="-2.65904">
        <ele>30.6</ele>
        <time>2013-09-28T13:49:49Z</time>
      </trkpt>
      <trkpt lat="48.52933" lon="-2.6589">
        <ele>30.9</ele>
        <time>2013-09-28T13:50:02Z</time>
      </trkpt>
      <trkpt lat="48.5294" lon="-2.65883">
        <ele>29.9</ele>
        <time>2013-09-28T13:50:09Z</time>
      </trkpt>
      <trkpt lat="48.52947" lon="-2.65878">
        <ele>29.6</ele>
        <time>2013-09-28T13:50:16Z</time>
      </trkpt>
      <trkpt lat="48.52956" lon="-2.65874">
        <ele>28.9</ele>
        <time>2013-09-28T13:50:23Z</time>
      </trkpt>
      <trkpt lat="48.52964" lon="-2.65872">
        <ele>29.3</ele>
        <time>2013-09-28T13:50:30Z</time>
      </trkpt>
      <trkpt lat="48.52971" lon="-2.6588">
        <ele>29.7</ele>
        <time>2013-09-28T13:50:38Z</time>
      </trkpt>
      <trkpt lat="48.52971" lon="-2.65893">
        <ele>31.4</ele>
        <time>2013-09-28T13:50:49Z</time>
      </trkpt>
      <trkpt lat="48.5297" lon="-2.65894">
        <ele>31.5</ele>
        <time>2013-09-28T13:50:50Z</time>
      </trkpt>
      <trkpt lat="48.52967" lon="-2.65916">
        <ele>33.4</ele>
        <time>2013-09-28T13:51:07Z</time>
      </trkpt>
      <trkpt lat="48.52968" lon="-2.65928">
        <ele>33.3</ele>
        <time>2013-09-28T13:51:14Z</time>
      </trkpt>
      <trkpt lat="48.52972" lon="-2.65939">
        <ele>34.1</ele>
        <time>2013-09-28T13:51:21Z</time>
      </trkpt>
      <trkpt lat="48.52978" lon="-2.65946">
        <ele>34.6</ele>
        <time>2013-09-28T13:51:27Z</time>
      </trkpt>
      <trkpt lat="48.52986" lon="-2.65952">
        <ele>35.1</ele>
        <time>2013-09-28T13:51:34Z</time>
      </trkpt>
      <trkpt lat="48.52995" lon="-2.65956">
        <ele>34.3</ele>
        <time>2013-09-28T13:51:41Z</time>
      </trkpt>
      <trkpt lat="48.53002" lon="-2.65958">
        <ele>33.3</ele>
        <time>2013-09-28T13:51:47Z</time>
      </trkpt>
      <trkpt lat="48.5301" lon="-2.65962">
        <ele>33.4</ele>
        <time>2013-09-28T13:51:53Z</time>
      </trkpt>
      <trkpt lat="48.53011" lon="-2.65963">
        <ele>33.4</ele>
        <time>2013-09-28T13:51:54Z</time>
      </trkpt>
      <trkpt lat="48.5302" lon="-2.65982">
        <ele>34.1</ele>
        <time>2013-09-28T13:52:07Z</time>
      </trkpt>
      <trkpt lat="48.53024" lon="-2.65993">
        <ele>34.2</ele>
        <time>2013-09-28T13:52:14Z</time>
      </trkpt>
      <trkpt lat="48.53027" lon="-2.66004">
        <ele>35.3</ele>
        <time>2013-09-28T13:52:21Z</time>
      </trkpt>
      <trkpt lat="48.53031" lon="-2.66016">
        <ele>33.5</ele>
        <time>2013-09-28T13:52:29Z</time>
      </trkpt>
      <trkpt lat="48.53036" lon="-2.66025">
        <ele>33.2</ele>
        <time>2013-09-28T13:52:36Z</time>
      </trkpt>
      <trkpt lat="48.53042" lon="-2.66034">
        <ele>32.9</ele>
        <time>2013-09-28T13:52:43Z</time>
      </trkpt>
      <trkpt lat="48.53048" lon="-2.66042">
        <ele>31</ele>
        <time>2013-09-28T13:52:50Z</time>
      </trkpt>
      <trkpt lat="48.53053" lon="-2.66052">
        <ele>29.7</ele>
        <time>2013-09-28T13:52:57Z</time>
      </trkpt>
      <trkpt lat="48.53054" lon="-2.66053">
        <ele>29.6</ele>
        <time>2013-09-28T13:52:58Z</time>
      </trkpt>
      <trkpt lat="48.53054" lon="-2.66076">
        <ele>28.3</ele>
        <time>2013-09-28T13:53:11Z</time>
      </trkpt>
      <trkpt lat="48.53052" lon="-2.66088">
        <ele>27.1</ele>
        <time>2013-09-28T13:53:18Z</time>
      </trkpt>
      <trkpt lat="48.53047" lon="-2.66099">
        <ele>26.5</ele>
        <time>2013-09-28T13:53:25Z</time>
      </trkpt>
      <trkpt lat="48.53042" lon="-2.6611">
        <ele>26.2</ele>
        <time>2013-09-28T13:53:32Z</time>
      </trkpt>
      <trkpt lat="48.53035" lon="-2.66116">
        <ele>26.2</ele>
        <time>2013-09-28T13:53:39Z</time>
      </trkpt>
      <trkpt lat="48.53035" lon="-2.66129">
        <ele>26.7</ele>
        <time>2013-09-28T13:53:50Z</time>
      </trkpt>
      <trkpt lat="48.53041" lon="-2.66137">
        <ele>26.4</ele>
        <time>2013-09-28T13:53:56Z</time>
      </trkpt>
      <trkpt lat="48.53045" lon="-2.66148">
        <ele>26.3</ele>
        <time>2013-09-28T13:54:05Z</time>
      </trkpt>
      <trkpt lat="48.53045" lon="-2.66149">
        <ele>26.4</ele>
        <time>2013-09-28T13:54:06Z</time>
      </trkpt>
      <trkpt lat="48.53047" lon="-2.66173">
        <ele>31.2</ele>
        <time>2013-09-28T13:54:32Z</time>
      </trkpt>
      <trkpt lat="48.5305" lon="-2.66185">
        <ele>32.5</ele>
        <time>2013-09-28T13:54:40Z</time>
      </trkpt>
      <trkpt lat="48.53052" lon="-2.66198">
        <ele>33</ele>
        <time>2013-09-28T13:54:47Z</time>
      </trkpt>
      <trkpt lat="48.53053" lon="-2.66211">
        <ele>32.8</ele>
        <time>2013-09-28T13:54:55Z</time>
      </trkpt>
      <trkpt lat="48.53053" lon="-2.66224">
        <ele>33.3</ele>
        <time>2013-09-28T13:55:04Z</time>
      </trkpt>
      <trkpt lat="48.53055" lon="-2.66237">
        <ele>33.6</ele>
        <time>2013-09-28T13:55:11Z</time>
      </trkpt>
      <trkpt lat="48.53055" lon="-2.66238">
        <ele>33.4</ele>
        <time>2013-09-28T13:55:12Z</time>
      </trkpt>
      <trkpt lat="48.53062" lon="-2.66258">
        <ele>33.1</ele>
        <time>2013-09-28T13:55:26Z</time>
      </trkpt>
      <trkpt lat="48.53067" lon="-2.66269">
        <ele>32</ele>
        <time>2013-09-28T13:55:38Z</time>
      </trkpt>
      <trkpt lat="48.53073" lon="-2.66279">
        <ele>29.5</ele>
        <time>2013-09-28T13:55:55Z</time>
      </trkpt>
      <trkpt lat="48.5308" lon="-2.66284">
        <ele>27.4</ele>
        <time>2013-09-28T13:56:16Z</time>
      </trkpt>
      <trkpt lat="48.53081" lon="-2.66285">
        <ele>27.2</ele>
        <time>2013-09-28T13:56:17Z</time>
      </trkpt>
      <trkpt lat="48.53091" lon="-2.66305">
        <ele>24.5</ele>
        <time>2013-09-28T13:56:35Z</time>
      </trkpt>
      <trkpt lat="48.53097" lon="-2.66314">
        <ele>24.1</ele>
        <time>2013-09-28T13:56:43Z</time>
      </trkpt>
      <trkpt lat="48.53102" lon="-2.66324">
        <ele>23.1</ele>
        <time>2013-09-28T13:56:50Z</time>
      </trkpt>
      <trkpt lat="48.53106" lon="-2.66335">
        <ele>22.4</ele>
        <time>2013-09-28T13:56:59Z</time>
      </trkpt>
      <trkpt lat="48.53111" lon="-2.66346">
        <ele>19.4</ele>
        <time>2013-09-28T13:57:12Z</time>
      </trkpt>
      <trkpt lat="48.53109" lon="-2.66359">
        <ele>19.5</ele>
        <time>2013-09-28T13:57:21Z</time>
      </trkpt>
      <trkpt lat="48.53109" lon="-2.6636">
        <ele>19.4</ele>
        <time>2013-09-28T13:57:22Z</time>
      </trkpt>
      <trkpt lat="48.531" lon="-2.66381">
        <ele>23.4</ele>
        <time>2013-09-28T13:57:43Z</time>
      </trkpt>
      <trkpt lat="48.53108" lon="-2.66384">
        <ele>25.6</ele>
        <time>2013-09-28T13:58:06Z</time>
      </trkpt>
      <trkpt lat="48.53114" lon="-2.66375">
        <ele>25.4</ele>
        <time>2013-09-28T13:58:13Z</time>
      </trkpt>
      <trkpt lat="48.53121" lon="-2.66368">
        <ele>26</ele>
        <time>2013-09-28T13:58:21Z</time>
      </trkpt>
      <trkpt lat="48.53128" lon="-2.66363">
        <ele>25.3</ele>
        <time>2013-09-28T13:58:28Z</time>
      </trkpt>
      <trkpt lat="48.53129" lon="-2.66362">
        <ele>25.4</ele>
        <time>2013-09-28T13:58:29Z</time>
      </trkpt>
      <trkpt lat="48.53144" lon="-2.66353">
        <ele>26.4</ele>
        <time>2013-09-28T13:58:42Z</time>
      </trkpt>
      <trkpt lat="48.53151" lon="-2.66348">
        <ele>26.8</ele>
        <time>2013-09-28T13:58:49Z</time>
      </trkpt>
      <trkpt lat="48.5316" lon="-2.66347">
        <ele>26.6</ele>
        <time>2013-09-28T13:58:56Z</time>
      </trkpt>
      <trkpt lat="48.53169" lon="-2.66343">
        <ele>26.7</ele>
        <time>2013-09-28T13:59:03Z</time>
      </trkpt>
      <trkpt lat="48.53176" lon="-2.66335">
        <ele>25.6</ele>
        <time>2013-09-28T13:59:10Z</time>
      </trkpt>
      <trkpt lat="48.53183" lon="-2.66329">
        <ele>27.3</ele>
        <time>2013-09-28T13:59:17Z</time>
      </trkpt>
      <trkpt lat="48.53191" lon="-2.66323">
        <ele>26.6</ele>
        <time>2013-09-28T13:59:24Z</time>
      </trkpt>
      <trkpt lat="48.53199" lon="-2.66317">
        <ele>25.9</ele>
        <time>2013-09-28T13:59:33Z</time>
      </trkpt>
      <trkpt lat="48.532" lon="-2.66317">
        <ele>26.2</ele>
        <time>2013-09-28T13:59:34Z</time>
      </trkpt>
      <trkpt lat="48.53213" lon="-2.66321">
        <ele>22.6</ele>
        <time>2013-09-28T13:59:57Z</time>
      </trkpt>
      <trkpt lat="48.53216" lon="-2.66335">
        <ele>21.3</ele>
        <time>2013-09-28T14:00:04Z</time>
      </trkpt>
      <trkpt lat="48.53222" lon="-2.66343">
        <ele>21.3</ele>
        <time>2013-09-28T14:00:12Z</time>
      </trkpt>
      <trkpt lat="48.53231" lon="-2.66344">
        <ele>20.8</ele>
        <time>2013-09-28T14:00:21Z</time>
      </trkpt>
      <trkpt lat="48.53239" lon="-2.66344">
        <ele>22</ele>
        <time>2013-09-28T14:00:33Z</time>
      </trkpt>
      <trkpt lat="48.53248" lon="-2.66339">
        <ele>25.8</ele>
        <time>2013-09-28T14:00:47Z</time>
      </trkpt>
      <trkpt lat="48.53248" lon="-2.66338">
        <ele>26</ele>
        <time>2013-09-28T14:00:48Z</time>
      </trkpt>
      <trkpt lat="48.53264" lon="-2.66335">
        <ele>30.4</ele>
        <time>2013-09-28T14:01:16Z</time>
      </trkpt>
      <trkpt lat="48.53272" lon="-2.6633">
        <ele>31.2</ele>
        <time>2013-09-28T14:01:25Z</time>
      </trkpt>
      <trkpt lat="48.53281" lon="-2.66327">
        <ele>31.4</ele>
        <time>2013-09-28T14:01:33Z</time>
      </trkpt>
      <trkpt lat="48.53289" lon="-2.66325">
        <ele>32.3</ele>
        <time>2013-09-28T14:01:41Z</time>
      </trkpt>
      <trkpt lat="48.53297" lon="-2.66322">
        <ele>33</ele>
        <time>2013-09-28T14:01:48Z</time>
      </trkpt>
      <trkpt lat="48.53298" lon="-2.66322">
        <ele>33.1</ele>
        <time>2013-09-28T14:01:49Z</time>
      </trkpt>
      <trkpt lat="48.53313" lon="-2.66328">
        <ele>32.7</ele>
        <time>2013-09-28T14:02:03Z</time>
      </trkpt>
      <trkpt lat="48.53321" lon="-2.66331">
        <ele>32.7</ele>
        <time>2013-09-28T14:02:11Z</time>
      </trkpt>
      <trkpt lat="48.53329" lon="-2.66333">
        <ele>33.3</ele>
        <time>2013-09-28T14:02:18Z</time>
      </trkpt>
      <trkpt lat="48.53337" lon="-2.66338">
        <ele>34</ele>
        <time>2013-09-28T14:02:25Z</time>
      </trkpt>
      <trkpt lat="48.53338" lon="-2.66351">
        <ele>34.9</ele>
        <time>2013-09-28T14:02:33Z</time>
      </trkpt>
      <trkpt lat="48.53333" lon="-2.66361">
        <ele>36.6</ele>
        <time>2013-09-28T14:02:42Z</time>
      </trkpt>
      <trkpt lat="48.53333" lon="-2.66375">
        <ele>37.3</ele>
        <time>2013-09-28T14:02:51Z</time>
      </trkpt>
      <trkpt lat="48.53333" lon="-2.66376">
        <ele>37.4</ele>
        <time>2013-09-28T14:02:52Z</time>
      </trkpt>
      <trkpt lat="48.53333" lon="-2.66399">
        <ele>38.8</ele>
        <time>2013-09-28T14:03:05Z</time>
      </trkpt>
      <trkpt lat="48.53334" lon="-2.66412">
        <ele>38.5</ele>
        <time>2013-09-28T14:03:13Z</time>
      </trkpt>
      <trkpt lat="48.53335" lon="-2.66424">
        <ele>39.3</ele>
        <time>2013-09-28T14:03:20Z</time>
      </trkpt>
      <trkpt lat="48.53338" lon="-2.66437">
        <ele>39.3</ele>
        <time>2013-09-28T14:03:27Z</time>
      </trkpt>
      <trkpt lat="48.53338" lon="-2.6645">
        <ele>40.3</ele>
        <time>2013-09-28T14:03:36Z</time>
      </trkpt>
      <trkpt lat="48.53338" lon="-2.66463">
        <ele>39.2</ele>
        <time>2013-09-28T14:03:44Z</time>
      </trkpt>
      <trkpt lat="48.53336" lon="-2.66476">
        <ele>41.5</ele>
        <time>2013-09-28T14:03:53Z</time>
      </trkpt>
      <trkpt lat="48.53336" lon="-2.66478">
        <ele>41.6</ele>
        <time>2013-09-28T14:03:54Z</time>
      </trkpt>
      <trkpt lat="48.53335" lon="-2.66501">
        <ele>43.9</ele>
        <time>2013-09-28T14:04:09Z</time>
      </trkpt>
      <trkpt lat="48.53336" lon="-2.66515">
        <ele>42.8</ele>
        <time>2013-09-28T14:04:17Z</time>
      </trkpt>
      <trkpt lat="48.53336" lon="-2.66527">
        <ele>43.4</ele>
        <time>2013-09-28T14:04:24Z</time>
      </trkpt>
      <trkpt lat="48.53338" lon="-2.6654">
        <ele>42.8</ele>
        <time>2013-09-28T14:04:31Z</time>
      </trkpt>
      <trkpt lat="48.53339" lon="-2.66553">
        <ele>44.1</ele>
        <time>2013-09-28T14:04:38Z</time>
      </trkpt>
      <trkpt lat="48.53339" lon="-2.66565">
        <ele>43.9</ele>
        <time>2013-09-28T14:04:45Z</time>
      </trkpt>
      <trkpt lat="48.5334" lon="-2.66577">
        <ele>43.9</ele>
        <time>2013-09-28T14:04:52Z</time>
      </trkpt>
      <trkpt lat="48.53342" lon="-2.66589">
        <ele>43.9</ele>
        <time>2013-09-28T14:04:58Z</time>
      </trkpt>
      <trkpt lat="48.53342" lon="-2.66591">
        <ele>44.1</ele>
        <time>2013-09-28T14:04:59Z</time>
      </trkpt>
      <trkpt lat="48.53343" lon="-2.66614">
        <ele>44.7</ele>
        <time>2013-09-28T14:05:11Z</time>
      </trkpt>
      <trkpt lat="48.53341" lon="-2.66626">
        <ele>44.6</ele>
        <time>2013-09-28T14:05:18Z</time>
      </trkpt>
      <trkpt lat="48.53344" lon="-2.66639">
        <ele>45.7</ele>
        <time>2013-09-28T14:05:25Z</time>
      </trkpt>
      <trkpt lat="48.53348" lon="-2.66649">
        <ele>45.1</ele>
        <time>2013-09-28T14:05:31Z</time>
      </trkpt>
      <trkpt lat="48.53351" lon="-2.66662">
        <ele>45</ele>
        <time>2013-09-28T14:05:38Z</time>
      </trkpt>
      <trkpt lat="48.53353" lon="-2.66673">
        <ele>45.8</ele>
        <time>2013-09-28T14:05:45Z</time>
      </trkpt>
      <trkpt lat="48.53357" lon="-2.66685">
        <ele>46.4</ele>
        <time>2013-09-28T14:05:52Z</time>
      </trkpt>
      <trkpt lat="48.5336" lon="-2.66696">
        <ele>45.3</ele>
        <time>2013-09-28T14:05:59Z</time>
      </trkpt>
      <trkpt lat="48.5336" lon="-2.66698">
        <ele>45.1</ele>
        <time>2013-09-28T14:06:00Z</time>
      </trkpt>
      <trkpt lat="48.53363" lon="-2.66721">
        <ele>42.1</ele>
        <time>2013-09-28T14:06:17Z</time>
      </trkpt>
      <trkpt lat="48.53366" lon="-2.66733">
        <ele>40.7</ele>
        <time>2013-09-28T14:06:31Z</time>
      </trkpt>
      <trkpt lat="48.53371" lon="-2.66743">
        <ele>37.7</ele>
        <time>2013-09-28T14:06:45Z</time>
      </trkpt>
      <trkpt lat="48.53374" lon="-2.66755">
        <ele>37.3</ele>
        <time>2013-09-28T14:06:53Z</time>
      </trkpt>
      <trkpt lat="48.53378" lon="-2.66766">
        <ele>38.4</ele>
        <time>2013-09-28T14:07:02Z</time>
      </trkpt>
      <trkpt lat="48.53379" lon="-2.66767">
        <ele>38.5</ele>
        <time>2013-09-28T14:07:03Z</time>
      </trkpt>
      <trkpt lat="48.53395" lon="-2.66768">
        <ele>41.2</ele>
        <time>2013-09-28T14:07:21Z</time>
      </trkpt>
      <trkpt lat="48.53402" lon="-2.66775">
        <ele>42.2</ele>
        <time>2013-09-28T14:07:33Z</time>
      </trkpt>
      <trkpt lat="48.53408" lon="-2.66784">
        <ele>43.3</ele>
        <time>2013-09-28T14:07:46Z</time>
      </trkpt>
      <trkpt lat="48.53413" lon="-2.66793">
        <ele>46.1</ele>
        <time>2013-09-28T14:07:57Z</time>
      </trkpt>
      <trkpt lat="48.53417" lon="-2.66805">
        <ele>44.9</ele>
        <time>2013-09-28T14:08:05Z</time>
      </trkpt>
      <trkpt lat="48.53418" lon="-2.66807">
        <ele>44.8</ele>
        <time>2013-09-28T14:08:06Z</time>
      </trkpt>
      <trkpt lat="48.53425" lon="-2.66827">
        <ele>43.8</ele>
        <time>2013-09-28T14:08:19Z</time>
      </trkpt>
      <trkpt lat="48.53431" lon="-2.66837">
        <ele>44.2</ele>
        <time>2013-09-28T14:08:29Z</time>
      </trkpt>
      <trkpt lat="48.53436" lon="-2.66847">
        <ele>44.7</ele>
        <time>2013-09-28T14:08:36Z</time>
      </trkpt>
      <trkpt lat="48.5344" lon="-2.66857">
        <ele>44.6</ele>
        <time>2013-09-28T14:08:44Z</time>
      </trkpt>
      <trkpt lat="48.53449" lon="-2.6686">
        <ele>43.5</ele>
        <time>2013-09-28T14:08:52Z</time>
      </trkpt>
      <trkpt lat="48.53457" lon="-2.66858">
        <ele>45.1</ele>
        <time>2013-09-28T14:09:02Z</time>
      </trkpt>
      <trkpt lat="48.53466" lon="-2.66857">
        <ele>45</ele>
        <time>2013-09-28T14:09:09Z</time>
      </trkpt>
      <trkpt lat="48.53467" lon="-2.66858">
        <ele>44.9</ele>
        <time>2013-09-28T14:09:10Z</time>
      </trkpt>
      <trkpt lat="48.53481" lon="-2.66868">
        <ele>44.7</ele>
        <time>2013-09-28T14:09:24Z</time>
      </trkpt>
      <trkpt lat="48.53488" lon="-2.66875">
        <ele>44</ele>
        <time>2013-09-28T14:09:31Z</time>
      </trkpt>
      <trkpt lat="48.53494" lon="-2.66885">
        <ele>43</ele>
        <time>2013-09-28T14:09:39Z</time>
      </trkpt>
      <trkpt lat="48.53501" lon="-2.66892">
        <ele>42</ele>
        <time>2013-09-28T14:09:50Z</time>
      </trkpt>
      <trkpt lat="48.53508" lon="-2.669">
        <ele>39.8</ele>
        <time>2013-09-28T14:10:00Z</time>
      </trkpt>
      <trkpt lat="48.53514" lon="-2.66908">
        <ele>38.3</ele>
        <time>2013-09-28T14:10:07Z</time>
      </trkpt>
      <trkpt lat="48.53519" lon="-2.66918">
        <ele>38.5</ele>
        <time>2013-09-28T14:10:20Z</time>
      </trkpt>
      <trkpt lat="48.5352" lon="-2.66919">
        <ele>38.8</ele>
        <time>2013-09-28T14:10:21Z</time>
      </trkpt>
      <trkpt lat="48.53532" lon="-2.66932">
        <ele>37.6</ele>
        <time>2013-09-28T14:10:36Z</time>
      </trkpt>
      <trkpt lat="48.53537" lon="-2.66943">
        <ele>39.3</ele>
        <time>2013-09-28T14:10:50Z</time>
      </trkpt>
      <trkpt lat="48.53545" lon="-2.66947">
        <ele>41</ele>
        <time>2013-09-28T14:11:04Z</time>
      </trkpt>
      <trkpt lat="48.53552" lon="-2.66942">
        <ele>41.4</ele>
        <time>2013-09-28T14:11:11Z</time>
      </trkpt>
      <trkpt lat="48.53561" lon="-2.66937">
        <ele>41.1</ele>
        <time>2013-09-28T14:11:19Z</time>
      </trkpt>
      <trkpt lat="48.53569" lon="-2.66933">
        <ele>40.3</ele>
        <time>2013-09-28T14:11:27Z</time>
      </trkpt>
      <trkpt lat="48.5357" lon="-2.66933">
        <ele>40.5</ele>
        <time>2013-09-28T14:11:28Z</time>
      </trkpt>
      <trkpt lat="48.53567" lon="-2.66953">
        <ele>41.9</ele>
        <time>2013-09-28T14:12:33Z</time>
      </trkpt>
      <trkpt lat="48.53566" lon="-2.66954">
        <ele>41.9</ele>
        <time>2013-09-28T14:12:34Z</time>
      </trkpt>
      <trkpt lat="48.53556" lon="-2.66972">
        <ele>43.3</ele>
        <time>2013-09-28T14:12:52Z</time>
      </trkpt>
      <trkpt lat="48.53553" lon="-2.66984">
        <ele>46</ele>
        <time>2013-09-28T14:13:00Z</time>
      </trkpt>
      <trkpt lat="48.5355" lon="-2.66995">
        <ele>45.3</ele>
        <time>2013-09-28T14:13:08Z</time>
      </trkpt>
      <trkpt lat="48.53545" lon="-2.67006">
        <ele>45.7</ele>
        <time>2013-09-28T14:13:18Z</time>
      </trkpt>
      <trkpt lat="48.5354" lon="-2.67015">
        <ele>43.9</ele>
        <time>2013-09-28T14:13:27Z</time>
      </trkpt>
      <trkpt lat="48.53534" lon="-2.67024">
        <ele>46.4</ele>
        <time>2013-09-28T14:13:34Z</time>
      </trkpt>
      <trkpt lat="48.53534" lon="-2.67026">
        <ele>46.6</ele>
        <time>2013-09-28T14:13:35Z</time>
      </trkpt>
      <trkpt lat="48.53528" lon="-2.67048">
        <ele>48.1</ele>
        <time>2013-09-28T14:13:50Z</time>
      </trkpt>
      <trkpt lat="48.53526" lon="-2.6706">
        <ele>47.7</ele>
        <time>2013-09-28T14:13:57Z</time>
      </trkpt>
      <trkpt lat="48.53523" lon="-2.67072">
        <ele>48.4</ele>
        <time>2013-09-28T14:14:05Z</time>
      </trkpt>
      <trkpt lat="48.53518" lon="-2.67083">
        <ele>48.4</ele>
        <time>2013-09-28T14:14:15Z</time>
      </trkpt>
      <trkpt lat="48.53514" lon="-2.67095">
        <ele>48.1</ele>
        <time>2013-09-28T14:14:23Z</time>
      </trkpt>
      <trkpt lat="48.5351" lon="-2.67106">
        <ele>47.2</ele>
        <time>2013-09-28T14:14:31Z</time>
      </trkpt>
      <trkpt lat="48.53503" lon="-2.67113">
        <ele>46.9</ele>
        <time>2013-09-28T14:14:37Z</time>
      </trkpt>
      <trkpt lat="48.53502" lon="-2.67114">
        <ele>46.7</ele>
        <time>2013-09-28T14:14:38Z</time>
      </trkpt>
      <trkpt lat="48.53489" lon="-2.67125">
        <ele>46.6</ele>
        <time>2013-09-28T14:14:50Z</time>
      </trkpt>
      <trkpt lat="48.53483" lon="-2.67133">
        <ele>45.9</ele>
        <time>2013-09-28T14:15:06Z</time>
      </trkpt>
      <trkpt lat="48.53476" lon="-2.67142">
        <ele>45.8</ele>
        <time>2013-09-28T14:15:14Z</time>
      </trkpt>
      <trkpt lat="48.53469" lon="-2.6715">
        <ele>44.4</ele>
        <time>2013-09-28T14:15:21Z</time>
      </trkpt>
      <trkpt lat="48.53463" lon="-2.67159">
        <ele>42.6</ele>
        <time>2013-09-28T14:15:28Z</time>
      </trkpt>
      <trkpt lat="48.53458" lon="-2.6717">
        <ele>43.1</ele>
        <time>2013-09-28T14:15:35Z</time>
      </trkpt>
      <trkpt lat="48.53453" lon="-2.67179">
        <ele>42.9</ele>
        <time>2013-09-28T14:15:42Z</time>
      </trkpt>
      <trkpt lat="48.53452" lon="-2.6718">
        <ele>43.1</ele>
        <time>2013-09-28T14:15:43Z</time>
      </trkpt>
      <trkpt lat="48.53444" lon="-2.67201">
        <ele>41.5</ele>
        <time>2013-09-28T14:15:57Z</time>
      </trkpt>
      <trkpt lat="48.53439" lon="-2.67212">
        <ele>40.9</ele>
        <time>2013-09-28T14:16:07Z</time>
      </trkpt>
      <trkpt lat="48.53433" lon="-2.67222">
        <ele>40.4</ele>
        <time>2013-09-28T14:16:17Z</time>
      </trkpt>
      <trkpt lat="48.53427" lon="-2.6723">
        <ele>40.2</ele>
        <time>2013-09-28T14:16:26Z</time>
      </trkpt>
      <trkpt lat="48.53421" lon="-2.6724">
        <ele>40.5</ele>
        <time>2013-09-28T14:16:36Z</time>
      </trkpt>
      <trkpt lat="48.5342" lon="-2.67253">
        <ele>39.3</ele>
        <time>2013-09-28T14:16:48Z</time>
      </trkpt>
      <trkpt lat="48.5342" lon="-2.67254">
        <ele>39.1</ele>
        <time>2013-09-28T14:16:49Z</time>
      </trkpt>
      <trkpt lat="48.53417" lon="-2.67279">
        <ele>37.1</ele>
        <time>2013-09-28T14:17:08Z</time>
      </trkpt>
      <trkpt lat="48.53414" lon="-2.6729">
        <ele>36.6</ele>
        <time>2013-09-28T14:17:15Z</time>
      </trkpt>
      <trkpt lat="48.5341" lon="-2.67301">
        <ele>35.6</ele>
        <time>2013-09-28T14:17:22Z</time>
      </trkpt>
      <trkpt lat="48.53406" lon="-2.67312">
        <ele>34.8</ele>
        <time>2013-09-28T14:17:29Z</time>
      </trkpt>
      <trkpt lat="48.53401" lon="-2.67323">
        <ele>34</ele>
        <time>2013-09-28T14:17:37Z</time>
      </trkpt>
      <trkpt lat="48.53395" lon="-2.67331">
        <ele>31.5</ele>
        <time>2013-09-28T14:17:47Z</time>
      </trkpt>
      <trkpt lat="48.53399" lon="-2.67342">
        <ele>29.4</ele>
        <time>2013-09-28T14:18:03Z</time>
      </trkpt>
      <trkpt lat="48.53399" lon="-2.67344">
        <ele>29.2</ele>
        <time>2013-09-28T14:18:04Z</time>
      </trkpt>
      <trkpt lat="48.53398" lon="-2.67367">
        <ele>28.4</ele>
        <time>2013-09-28T14:18:17Z</time>
      </trkpt>
      <trkpt lat="48.53395" lon="-2.67379">
        <ele>31.5</ele>
        <time>2013-09-28T14:18:44Z</time>
      </trkpt>
      <trkpt lat="48.53391" lon="-2.6739">
        <ele>31.6</ele>
        <time>2013-09-28T14:18:53Z</time>
      </trkpt>
      <trkpt lat="48.53394" lon="-2.67401">
        <ele>31.6</ele>
        <time>2013-09-28T14:19:04Z</time>
      </trkpt>
      <trkpt lat="48.53394" lon="-2.67403">
        <ele>31.8</ele>
        <time>2013-09-28T14:19:05Z</time>
      </trkpt>
      <trkpt lat="48.53405" lon="-2.67419">
        <ele>32.7</ele>
        <time>2013-09-28T14:19:19Z</time>
      </trkpt>
      <trkpt lat="48.53413" lon="-2.67423">
        <ele>32.1</ele>
        <time>2013-09-28T14:19:26Z</time>
      </trkpt>
      <trkpt lat="48.53419" lon="-2.67431">
        <ele>31.9</ele>
        <time>2013-09-28T14:19:32Z</time>
      </trkpt>
      <trkpt lat="48.53423" lon="-2.67442">
        <ele>31.5</ele>
        <time>2013-09-28T14:19:38Z</time>
      </trkpt>
      <trkpt lat="48.53425" lon="-2.67454">
        <ele>31.1</ele>
        <time>2013-09-28T14:19:45Z</time>
      </trkpt>
      <trkpt lat="48.53429" lon="-2.67466">
        <ele>29.6</ele>
        <time>2013-09-28T14:19:54Z</time>
      </trkpt>
      <trkpt lat="48.53426" lon="-2.67479">
        <ele>28.6</ele>
        <time>2013-09-28T14:20:01Z</time>
      </trkpt>
      <trkpt lat="48.53418" lon="-2.67479">
        <ele>28.1</ele>
        <time>2013-09-28T14:20:08Z</time>
      </trkpt>
      <trkpt lat="48.53417" lon="-2.67478">
        <ele>28.2</ele>
        <time>2013-09-28T14:20:09Z</time>
      </trkpt>
      <trkpt lat="48.53402" lon="-2.67487">
        <ele>31.7</ele>
        <time>2013-09-28T14:20:28Z</time>
      </trkpt>
      <trkpt lat="48.53395" lon="-2.67493">
        <ele>33.1</ele>
        <time>2013-09-28T14:20:37Z</time>
      </trkpt>
      <trkpt lat="48.53387" lon="-2.67499">
        <ele>34.9</ele>
        <time>2013-09-28T14:20:47Z</time>
      </trkpt>
      <trkpt lat="48.53381" lon="-2.67508">
        <ele>36.3</ele>
        <time>2013-09-28T14:20:57Z</time>
      </trkpt>
      <trkpt lat="48.53376" lon="-2.6752">
        <ele>36.2</ele>
        <time>2013-09-28T14:21:06Z</time>
      </trkpt>
      <trkpt lat="48.53373" lon="-2.67532">
        <ele>37.3</ele>
        <time>2013-09-28T14:21:13Z</time>
      </trkpt>
      <trkpt lat="48.53373" lon="-2.67533">
        <ele>37.2</ele>
        <time>2013-09-28T14:21:14Z</time>
      </trkpt>
      <trkpt lat="48.5337" lon="-2.67557">
        <ele>35.3</ele>
        <time>2013-09-28T14:21:26Z</time>
      </trkpt>
      <trkpt lat="48.53368" lon="-2.67569">
        <ele>33.8</ele>
        <time>2013-09-28T14:21:33Z</time>
      </trkpt>
      <trkpt lat="48.53363" lon="-2.6758">
        <ele>33.8</ele>
        <time>2013-09-28T14:21:40Z</time>
      </trkpt>
      <trkpt lat="48.53356" lon="-2.67588">
        <ele>33.5</ele>
        <time>2013-09-28T14:21:48Z</time>
      </trkpt>
      <trkpt lat="48.53352" lon="-2.67599">
        <ele>33.3</ele>
        <time>2013-09-28T14:21:56Z</time>
      </trkpt>
      <trkpt lat="48.53351" lon="-2.67611">
        <ele>32.4</ele>
        <time>2013-09-28T14:22:02Z</time>
      </trkpt>
      <trkpt lat="48.5335" lon="-2.67624">
        <ele>33.1</ele>
        <time>2013-09-28T14:22:10Z</time>
      </trkpt>
      <trkpt lat="48.53352" lon="-2.67637">
        <ele>32</ele>
        <time>2013-09-28T14:22:18Z</time>
      </trkpt>
      <trkpt lat="48.53352" lon="-2.67638">
        <ele>31.5</ele>
        <time>2013-09-28T14:22:19Z</time>
      </trkpt>
      <trkpt lat="48.53356" lon="-2.6766">
        <ele>29.3</ele>
        <time>2013-09-28T14:22:32Z</time>
      </trkpt>
      <trkpt lat="48.53362" lon="-2.67669">
        <ele>28.3</ele>
        <time>2013-09-28T14:22:39Z</time>
      </trkpt>
      <trkpt lat="48.53368" lon="-2.6768">
        <ele>29.3</ele>
        <time>2013-09-28T14:22:49Z</time>
      </trkpt>
      <trkpt lat="48.53372" lon="-2.6769">
        <ele>29.3</ele>
        <time>2013-09-28T14:22:57Z</time>
      </trkpt>
      <trkpt lat="48.53376" lon="-2.67703">
        <ele>29.9</ele>
        <time>2013-09-28T14:23:09Z</time>
      </trkpt>
      <trkpt lat="48.5338" lon="-2.67712">
        <ele>31.6</ele>
        <time>2013-09-28T14:23:17Z</time>
      </trkpt>
      <trkpt lat="48.53388" lon="-2.67717">
        <ele>30.2</ele>
        <time>2013-09-28T14:23:24Z</time>
      </trkpt>
      <trkpt lat="48.53389" lon="-2.67718">
        <ele>30.4</ele>
        <time>2013-09-28T14:23:25Z</time>
      </trkpt>
      <trkpt lat="48.53391" lon="-2.6774">
        <ele>29.2</ele>
        <time>2013-09-28T14:23:38Z</time>
      </trkpt>
      <trkpt lat="48.53389" lon="-2.67751">
        <ele>29.3</ele>
        <time>2013-09-28T14:23:45Z</time>
      </trkpt>
      <trkpt lat="48.53384" lon="-2.67763">
        <ele>28.4</ele>
        <time>2013-09-28T14:23:53Z</time>
      </trkpt>
      <trkpt lat="48.53375" lon="-2.67764">
        <ele>29.1</ele>
        <time>2013-09-28T14:24:03Z</time>
      </trkpt>
      <trkpt lat="48.53367" lon="-2.67768">
        <ele>30</ele>
        <time>2013-09-28T14:24:12Z</time>
      </trkpt>
      <trkpt lat="48.5336" lon="-2.67773">
        <ele>31.2</ele>
        <time>2013-09-28T14:24:20Z</time>
      </trkpt>
      <trkpt lat="48.53355" lon="-2.67783">
        <ele>31.7</ele>
        <time>2013-09-28T14:24:27Z</time>
      </trkpt>
      <trkpt lat="48.53354" lon="-2.67784">
        <ele>31.7</ele>
        <time>2013-09-28T14:24:28Z</time>
      </trkpt>
      <trkpt lat="48.53344" lon="-2.67803">
        <ele>31.7</ele>
        <time>2013-09-28T14:24:42Z</time>
      </trkpt>
      <trkpt lat="48.53338" lon="-2.67811">
        <ele>30.3</ele>
        <time>2013-09-28T14:24:49Z</time>
      </trkpt>
      <trkpt lat="48.53331" lon="-2.67818">
        <ele>31</ele>
        <time>2013-09-28T14:24:59Z</time>
      </trkpt>
      <trkpt lat="48.53327" lon="-2.6783">
        <ele>32.2</ele>
        <time>2013-09-28T14:25:08Z</time>
      </trkpt>
      <trkpt lat="48.53329" lon="-2.67842">
        <ele>31.4</ele>
        <time>2013-09-28T14:25:15Z</time>
      </trkpt>
      <trkpt lat="48.53332" lon="-2.67854">
        <ele>31</ele>
        <time>2013-09-28T14:25:22Z</time>
      </trkpt>
      <trkpt lat="48.53335" lon="-2.67866">
        <ele>31</ele>
        <time>2013-09-28T14:25:29Z</time>
      </trkpt>
      <trkpt lat="48.53335" lon="-2.67868">
        <ele>31</ele>
        <time>2013-09-28T14:25:30Z</time>
      </trkpt>
      <trkpt lat="48.53332" lon="-2.6789">
        <ele>30.4</ele>
        <time>2013-09-28T14:25:42Z</time>
      </trkpt>
      <trkpt lat="48.53325" lon="-2.67897">
        <ele>30.4</ele>
        <time>2013-09-28T14:25:49Z</time>
      </trkpt>
      <trkpt lat="48.53319" lon="-2.67906">
        <ele>30.4</ele>
        <time>2013-09-28T14:25:56Z</time>
      </trkpt>
      <trkpt lat="48.53313" lon="-2.67914">
        <ele>30.2</ele>
        <time>2013-09-28T14:26:03Z</time>
      </trkpt>
      <trkpt lat="48.53305" lon="-2.67921">
        <ele>29.8</ele>
        <time>2013-09-28T14:26:10Z</time>
      </trkpt>
      <trkpt lat="48.53298" lon="-2.67926">
        <ele>30.5</ele>
        <time>2013-09-28T14:26:17Z</time>
      </trkpt>
      <trkpt lat="48.53291" lon="-2.6793">
        <ele>30.6</ele>
        <time>2013-09-28T14:26:24Z</time>
      </trkpt>
      <trkpt lat="48.53284" lon="-2.67936">
        <ele>31.2</ele>
        <time>2013-09-28T14:26:31Z</time>
      </trkpt>
      <trkpt lat="48.53283" lon="-2.67937">
        <ele>31.8</ele>
        <time>2013-09-28T14:26:32Z</time>
      </trkpt>
      <trkpt lat="48.53273" lon="-2.67955">
        <ele>31.7</ele>
        <time>2013-09-28T14:26:45Z</time>
      </trkpt>
      <trkpt lat="48.53268" lon="-2.67966">
        <ele>31.8</ele>
        <time>2013-09-28T14:26:52Z</time>
      </trkpt>
      <trkpt lat="48.53268" lon="-2.67978">
        <ele>30.6</ele>
        <time>2013-09-28T14:27:05Z</time>
      </trkpt>
      <trkpt lat="48.53272" lon="-2.67989">
        <ele>32.6</ele>
        <time>2013-09-28T14:27:12Z</time>
      </trkpt>
      <trkpt lat="48.53275" lon="-2.68001">
        <ele>31.6</ele>
        <time>2013-09-28T14:27:19Z</time>
      </trkpt>
      <trkpt lat="48.53276" lon="-2.68013">
        <ele>31.1</ele>
        <time>2013-09-28T14:27:26Z</time>
      </trkpt>
      <trkpt lat="48.53276" lon="-2.68026">
        <ele>32.1</ele>
        <time>2013-09-28T14:27:34Z</time>
      </trkpt>
      <trkpt lat="48.53277" lon="-2.68027">
        <ele>32</ele>
        <time>2013-09-28T14:27:35Z</time>
      </trkpt>
      <trkpt lat="48.53278" lon="-2.6805">
        <ele>33.8</ele>
        <time>2013-09-28T14:27:50Z</time>
      </trkpt>
      <trkpt lat="48.53275" lon="-2.68062">
        <ele>34.5</ele>
        <time>2013-09-28T14:27:58Z</time>
      </trkpt>
      <trkpt lat="48.53271" lon="-2.68072">
        <ele>34.8</ele>
        <time>2013-09-28T14:28:07Z</time>
      </trkpt>
      <trkpt lat="48.53266" lon="-2.68083">
        <ele>34.7</ele>
        <time>2013-09-28T14:28:15Z</time>
      </trkpt>
      <trkpt lat="48.53262" lon="-2.68093">
        <ele>36.1</ele>
        <time>2013-09-28T14:28:24Z</time>
      </trkpt>
      <trkpt lat="48.53255" lon="-2.68102">
        <ele>36</ele>
        <time>2013-09-28T14:28:34Z</time>
      </trkpt>
      <trkpt lat="48.5325" lon="-2.68112">
        <ele>37.8</ele>
        <time>2013-09-28T14:28:43Z</time>
      </trkpt>
      <trkpt lat="48.5325" lon="-2.68114">
        <ele>37.6</ele>
        <time>2013-09-28T14:28:44Z</time>
      </trkpt>
      <trkpt lat="48.5324" lon="-2.68133">
        <ele>34.9</ele>
        <time>2013-09-28T14:29:01Z</time>
      </trkpt>
      <trkpt lat="48.53234" lon="-2.68142">
        <ele>34.9</ele>
        <time>2013-09-28T14:29:11Z</time>
      </trkpt>
      <trkpt lat="48.53228" lon="-2.6815">
        <ele>36.4</ele>
        <time>2013-09-28T14:29:23Z</time>
      </trkpt>
      <trkpt lat="48.53222" lon="-2.6816">
        <ele>35.9</ele>
        <time>2013-09-28T14:30:21Z</time>
      </trkpt>
      <trkpt lat="48.53221" lon="-2.68161">
        <ele>35.5</ele>
        <time>2013-09-28T14:30:22Z</time>
      </trkpt>
      <trkpt lat="48.53213" lon="-2.68181">
        <ele>34.2</ele>
        <time>2013-09-28T14:30:35Z</time>
      </trkpt>
      <trkpt lat="48.53208" lon="-2.68189">
        <ele>33.6</ele>
        <time>2013-09-28T14:30:41Z</time>
      </trkpt>
      <trkpt lat="48.532" lon="-2.68196">
        <ele>30.4</ele>
        <time>2013-09-28T14:31:08Z</time>
      </trkpt>
      <trkpt lat="48.53192" lon="-2.68202">
        <ele>27.6</ele>
        <time>2013-09-28T14:31:20Z</time>
      </trkpt>
      <trkpt lat="48.53184" lon="-2.68204">
        <ele>25.7</ele>
        <time>2013-09-28T14:31:29Z</time>
      </trkpt>
      <trkpt lat="48.53183" lon="-2.68204">
        <ele>25.5</ele>
        <time>2013-09-28T14:31:30Z</time>
      </trkpt>
      <trkpt lat="48.5317" lon="-2.6819">
        <ele>22.4</ele>
        <time>2013-09-28T14:31:44Z</time>
      </trkpt>
      <trkpt lat="48.53166" lon="-2.68179">
        <ele>21.1</ele>
        <time>2013-09-28T14:31:51Z</time>
      </trkpt>
      <trkpt lat="48.53165" lon="-2.68165">
        <ele>23.3</ele>
        <time>2013-09-28T14:31:59Z</time>
      </trkpt>
      <trkpt lat="48.53161" lon="-2.68154">
        <ele>23.4</ele>
        <time>2013-09-28T14:32:07Z</time>
      </trkpt>
      <trkpt lat="48.53154" lon="-2.68149">
        <ele>23.7</ele>
        <time>2013-09-28T14:32:13Z</time>
      </trkpt>
      <trkpt lat="48.53146" lon="-2.68145">
        <ele>24.1</ele>
        <time>2013-09-28T14:32:19Z</time>
      </trkpt>
      <trkpt lat="48.53137" lon="-2.68144">
        <ele>23.7</ele>
        <time>2013-09-28T14:32:25Z</time>
      </trkpt>
      <trkpt lat="48.5313" lon="-2.6814">
        <ele>24</ele>
        <time>2013-09-28T14:32:31Z</time>
      </trkpt>
      <trkpt lat="48.53128" lon="-2.68138">
        <ele>24.3</ele>
        <time>2013-09-28T14:32:32Z</time>
      </trkpt>
      <trkpt lat="48.53115" lon="-2.68123">
        <ele>26.1</ele>
        <time>2013-09-28T14:32:53Z</time>
      </trkpt>
      <trkpt lat="48.5311" lon="-2.68112">
        <ele>22.1</ele>
        <time>2013-09-28T14:37:21Z</time>
      </trkpt>
      <trkpt lat="48.5311" lon="-2.68112">
        <ele>22</ele>
        <time>2013-09-28T14:37:22Z</time>
      </trkpt>
      <trkpt lat="48.5311" lon="-2.68115">
        <ele>22.5</ele>
        <time>2013-09-28T14:38:04Z</time>
      </trkpt>
    </trkseg>
  </trk>
</gpx>